<?xml version="1.0" encoding="UTF-8" standalone="no" ?>
<gpx xmlns="http://www.topografix.com/GPX/1/1" xmlns:xsi="http://www.w3.org/2001/XMLSchema-instance" xsi:schemaLocation="http://www.topografix.com/GPX/1/1 http://www.topografix.com/GPX/1/1/gpx.xsd" version="1.1" creator="VisuGPX - https://www.visugpx.com">
  <metadata>
    <name>Activité Randonnée TwoNav</name>
    <desc><![CDATA[2023-04-10_091858.trk]]></desc>
  </metadata>
  <trk>
    <name><![CDATA[Activité Randonnée TwoNav_1]]></name>
    <trkseg>
      <trkpt lat="47.79678" lon="6.54435">
        <ele>475.6</ele>
        <time>2023-04-10T07:18:58Z</time>
      </trkpt>
      <trkpt lat="47.79678" lon="6.54435">
        <ele>475.5</ele>
        <time>2023-04-10T07:18:59Z</time>
      </trkpt>
      <trkpt lat="47.79678" lon="6.54435">
        <ele>475.5</ele>
        <time>2023-04-10T07:19:02Z</time>
      </trkpt>
      <trkpt lat="47.79678" lon="6.54435">
        <ele>475.5</ele>
        <time>2023-04-10T07:19:04Z</time>
      </trkpt>
      <trkpt lat="47.79678" lon="6.54435">
        <ele>475.5</ele>
        <time>2023-04-10T07:19:06Z</time>
      </trkpt>
      <trkpt lat="47.79678" lon="6.54435">
        <ele>475.5</ele>
        <time>2023-04-10T07:19:06Z</time>
      </trkpt>
      <trkpt lat="47.79678" lon="6.54435">
        <ele>475.5</ele>
        <time>2023-04-10T07:19:07Z</time>
      </trkpt>
      <trkpt lat="47.79678" lon="6.54435">
        <ele>475.5</ele>
        <time>2023-04-10T07:19:08Z</time>
      </trkpt>
      <trkpt lat="47.79681" lon="6.54435">
        <ele>475.4</ele>
        <time>2023-04-10T07:19:16Z</time>
      </trkpt>
      <trkpt lat="47.79681" lon="6.54435">
        <ele>475.4</ele>
        <time>2023-04-10T07:19:17Z</time>
      </trkpt>
      <trkpt lat="47.7968" lon="6.54435">
        <ele>475.3</ele>
        <time>2023-04-10T07:19:21Z</time>
      </trkpt>
      <trkpt lat="47.7968" lon="6.54436">
        <ele>475.3</ele>
        <time>2023-04-10T07:19:23Z</time>
      </trkpt>
      <trkpt lat="47.79688" lon="6.54443">
        <ele>474.9</ele>
        <time>2023-04-10T07:19:42Z</time>
      </trkpt>
      <trkpt lat="47.79697" lon="6.54439">
        <ele>474.4</ele>
        <time>2023-04-10T07:19:54Z</time>
      </trkpt>
      <trkpt lat="47.79706" lon="6.54434">
        <ele>473.9</ele>
        <time>2023-04-10T07:20:03Z</time>
      </trkpt>
      <trkpt lat="47.79707" lon="6.54434">
        <ele>473.8</ele>
        <time>2023-04-10T07:20:06Z</time>
      </trkpt>
      <trkpt lat="47.79707" lon="6.54434">
        <ele>473.8</ele>
        <time>2023-04-10T07:20:07Z</time>
      </trkpt>
      <trkpt lat="47.79713" lon="6.54423">
        <ele>473.4</ele>
        <time>2023-04-10T07:20:16Z</time>
      </trkpt>
      <trkpt lat="47.79718" lon="6.54412">
        <ele>473.1</ele>
        <time>2023-04-10T07:20:21Z</time>
      </trkpt>
      <trkpt lat="47.79724" lon="6.54402">
        <ele>472.8</ele>
        <time>2023-04-10T07:20:27Z</time>
      </trkpt>
      <trkpt lat="47.79722" lon="6.54387">
        <ele>472.6</ele>
        <time>2023-04-10T07:20:35Z</time>
      </trkpt>
      <trkpt lat="47.79726" lon="6.54374">
        <ele>472.5</ele>
        <time>2023-04-10T07:20:40Z</time>
      </trkpt>
      <trkpt lat="47.79728" lon="6.54361">
        <ele>472.4</ele>
        <time>2023-04-10T07:20:46Z</time>
      </trkpt>
      <trkpt lat="47.79731" lon="6.54347">
        <ele>472.2</ele>
        <time>2023-04-10T07:20:54Z</time>
      </trkpt>
      <trkpt lat="47.79736" lon="6.54334">
        <ele>471.8</ele>
        <time>2023-04-10T07:21:01Z</time>
      </trkpt>
      <trkpt lat="47.79743" lon="6.54324">
        <ele>471.4</ele>
        <time>2023-04-10T07:21:08Z</time>
      </trkpt>
      <trkpt lat="47.79749" lon="6.54315">
        <ele>470.8</ele>
        <time>2023-04-10T07:21:16Z</time>
      </trkpt>
      <trkpt lat="47.79754" lon="6.54304">
        <ele>469.9</ele>
        <time>2023-04-10T07:21:24Z</time>
      </trkpt>
      <trkpt lat="47.7976" lon="6.54293">
        <ele>468.9</ele>
        <time>2023-04-10T07:21:32Z</time>
      </trkpt>
      <trkpt lat="47.79768" lon="6.54284">
        <ele>467.9</ele>
        <time>2023-04-10T07:21:39Z</time>
      </trkpt>
      <trkpt lat="47.79776" lon="6.54277">
        <ele>467.2</ele>
        <time>2023-04-10T07:21:45Z</time>
      </trkpt>
      <trkpt lat="47.79785" lon="6.54275">
        <ele>466.7</ele>
        <time>2023-04-10T07:21:56Z</time>
      </trkpt>
      <trkpt lat="47.79794" lon="6.54276">
        <ele>466.8</ele>
        <time>2023-04-10T07:22:03Z</time>
      </trkpt>
      <trkpt lat="47.79803" lon="6.5428">
        <ele>466.9</ele>
        <time>2023-04-10T07:22:11Z</time>
      </trkpt>
      <trkpt lat="47.79812" lon="6.54283">
        <ele>467.2</ele>
        <time>2023-04-10T07:22:18Z</time>
      </trkpt>
      <trkpt lat="47.79821" lon="6.54285">
        <ele>467.4</ele>
        <time>2023-04-10T07:22:26Z</time>
      </trkpt>
      <trkpt lat="47.79831" lon="6.54288">
        <ele>467.7</ele>
        <time>2023-04-10T07:22:34Z</time>
      </trkpt>
      <trkpt lat="47.7984" lon="6.54286">
        <ele>468</ele>
        <time>2023-04-10T07:22:41Z</time>
      </trkpt>
      <trkpt lat="47.7985" lon="6.54284">
        <ele>468.2</ele>
        <time>2023-04-10T07:22:50Z</time>
      </trkpt>
      <trkpt lat="47.79851" lon="6.54284">
        <ele>468.3</ele>
        <time>2023-04-10T07:22:54Z</time>
      </trkpt>
      <trkpt lat="47.79851" lon="6.54284">
        <ele>468.3</ele>
        <time>2023-04-10T07:22:56Z</time>
      </trkpt>
      <trkpt lat="47.79861" lon="6.54282">
        <ele>468.5</ele>
        <time>2023-04-10T07:23:03Z</time>
      </trkpt>
      <trkpt lat="47.7987" lon="6.54278">
        <ele>468.9</ele>
        <time>2023-04-10T07:23:08Z</time>
      </trkpt>
      <trkpt lat="47.7988" lon="6.54274">
        <ele>469.4</ele>
        <time>2023-04-10T07:23:14Z</time>
      </trkpt>
      <trkpt lat="47.79889" lon="6.54271">
        <ele>469.8</ele>
        <time>2023-04-10T07:23:21Z</time>
      </trkpt>
      <trkpt lat="47.79899" lon="6.54267">
        <ele>470</ele>
        <time>2023-04-10T07:23:29Z</time>
      </trkpt>
      <trkpt lat="47.79907" lon="6.54262">
        <ele>470.1</ele>
        <time>2023-04-10T07:23:36Z</time>
      </trkpt>
      <trkpt lat="47.79917" lon="6.54261">
        <ele>470.1</ele>
        <time>2023-04-10T07:23:44Z</time>
      </trkpt>
      <trkpt lat="47.79928" lon="6.54263">
        <ele>470.5</ele>
        <time>2023-04-10T07:23:51Z</time>
      </trkpt>
      <trkpt lat="47.79936" lon="6.54269">
        <ele>470.8</ele>
        <time>2023-04-10T07:24:00Z</time>
      </trkpt>
      <trkpt lat="47.79946" lon="6.54271">
        <ele>471</ele>
        <time>2023-04-10T07:24:08Z</time>
      </trkpt>
      <trkpt lat="47.79954" lon="6.54279">
        <ele>471.1</ele>
        <time>2023-04-10T07:24:18Z</time>
      </trkpt>
      <trkpt lat="47.7996" lon="6.54291">
        <ele>471.3</ele>
        <time>2023-04-10T07:24:26Z</time>
      </trkpt>
      <trkpt lat="47.79961" lon="6.54305">
        <ele>471.6</ele>
        <time>2023-04-10T07:24:35Z</time>
      </trkpt>
      <trkpt lat="47.79962" lon="6.5432">
        <ele>471.9</ele>
        <time>2023-04-10T07:24:42Z</time>
      </trkpt>
      <trkpt lat="47.7996" lon="6.54335">
        <ele>472.1</ele>
        <time>2023-04-10T07:24:49Z</time>
      </trkpt>
      <trkpt lat="47.79965" lon="6.54347">
        <ele>472.3</ele>
        <time>2023-04-10T07:24:58Z</time>
      </trkpt>
      <trkpt lat="47.7997" lon="6.54359">
        <ele>472.4</ele>
        <time>2023-04-10T07:25:05Z</time>
      </trkpt>
      <trkpt lat="47.79972" lon="6.54373">
        <ele>472.6</ele>
        <time>2023-04-10T07:25:12Z</time>
      </trkpt>
      <trkpt lat="47.79975" lon="6.54386">
        <ele>472.8</ele>
        <time>2023-04-10T07:25:18Z</time>
      </trkpt>
      <trkpt lat="47.79978" lon="6.544">
        <ele>473.1</ele>
        <time>2023-04-10T07:25:25Z</time>
      </trkpt>
      <trkpt lat="47.79982" lon="6.54413">
        <ele>473.4</ele>
        <time>2023-04-10T07:25:32Z</time>
      </trkpt>
      <trkpt lat="47.79983" lon="6.54427">
        <ele>473.7</ele>
        <time>2023-04-10T07:25:39Z</time>
      </trkpt>
      <trkpt lat="47.79984" lon="6.54441">
        <ele>474.1</ele>
        <time>2023-04-10T07:25:47Z</time>
      </trkpt>
      <trkpt lat="47.79987" lon="6.54455">
        <ele>474.4</ele>
        <time>2023-04-10T07:25:54Z</time>
      </trkpt>
      <trkpt lat="47.79988" lon="6.54469">
        <ele>474.8</ele>
        <time>2023-04-10T07:26:01Z</time>
      </trkpt>
      <trkpt lat="47.79989" lon="6.54482">
        <ele>475.2</ele>
        <time>2023-04-10T07:26:08Z</time>
      </trkpt>
      <trkpt lat="47.79993" lon="6.54495">
        <ele>475.6</ele>
        <time>2023-04-10T07:26:16Z</time>
      </trkpt>
      <trkpt lat="47.79995" lon="6.5451">
        <ele>476.1</ele>
        <time>2023-04-10T07:26:23Z</time>
      </trkpt>
      <trkpt lat="47.79997" lon="6.54523">
        <ele>476.6</ele>
        <time>2023-04-10T07:26:30Z</time>
      </trkpt>
      <trkpt lat="47.8" lon="6.54538">
        <ele>477.1</ele>
        <time>2023-04-10T07:26:37Z</time>
      </trkpt>
      <trkpt lat="47.80003" lon="6.54553">
        <ele>477.4</ele>
        <time>2023-04-10T07:26:45Z</time>
      </trkpt>
      <trkpt lat="47.80007" lon="6.54565">
        <ele>477.7</ele>
        <time>2023-04-10T07:26:53Z</time>
      </trkpt>
      <trkpt lat="47.8001" lon="6.54579">
        <ele>477.9</ele>
        <time>2023-04-10T07:27:00Z</time>
      </trkpt>
      <trkpt lat="47.80014" lon="6.54593">
        <ele>478.1</ele>
        <time>2023-04-10T07:27:07Z</time>
      </trkpt>
      <trkpt lat="47.80019" lon="6.54606">
        <ele>478.1</ele>
        <time>2023-04-10T07:27:15Z</time>
      </trkpt>
      <trkpt lat="47.80021" lon="6.54619">
        <ele>478</ele>
        <time>2023-04-10T07:27:25Z</time>
      </trkpt>
      <trkpt lat="47.80025" lon="6.54633">
        <ele>478</ele>
        <time>2023-04-10T07:27:33Z</time>
      </trkpt>
      <trkpt lat="47.80027" lon="6.54646">
        <ele>478</ele>
        <time>2023-04-10T07:27:41Z</time>
      </trkpt>
      <trkpt lat="47.8003" lon="6.5466">
        <ele>478</ele>
        <time>2023-04-10T07:27:49Z</time>
      </trkpt>
      <trkpt lat="47.80036" lon="6.54671">
        <ele>478.1</ele>
        <time>2023-04-10T07:27:57Z</time>
      </trkpt>
      <trkpt lat="47.80042" lon="6.54682">
        <ele>478.2</ele>
        <time>2023-04-10T07:28:04Z</time>
      </trkpt>
      <trkpt lat="47.80046" lon="6.54695">
        <ele>478.4</ele>
        <time>2023-04-10T07:28:12Z</time>
      </trkpt>
      <trkpt lat="47.8005" lon="6.54709">
        <ele>478.7</ele>
        <time>2023-04-10T07:28:22Z</time>
      </trkpt>
      <trkpt lat="47.80055" lon="6.54721">
        <ele>479</ele>
        <time>2023-04-10T07:28:30Z</time>
      </trkpt>
      <trkpt lat="47.80058" lon="6.54734">
        <ele>479.2</ele>
        <time>2023-04-10T07:28:37Z</time>
      </trkpt>
      <trkpt lat="47.80063" lon="6.54746">
        <ele>479.5</ele>
        <time>2023-04-10T07:28:46Z</time>
      </trkpt>
      <trkpt lat="47.80066" lon="6.5476">
        <ele>480</ele>
        <time>2023-04-10T07:28:53Z</time>
      </trkpt>
      <trkpt lat="47.8007" lon="6.54773">
        <ele>480.4</ele>
        <time>2023-04-10T07:28:59Z</time>
      </trkpt>
      <trkpt lat="47.80073" lon="6.54786">
        <ele>480.8</ele>
        <time>2023-04-10T07:29:06Z</time>
      </trkpt>
      <trkpt lat="47.80077" lon="6.54799">
        <ele>481.1</ele>
        <time>2023-04-10T07:29:15Z</time>
      </trkpt>
      <trkpt lat="47.80081" lon="6.54813">
        <ele>481.5</ele>
        <time>2023-04-10T07:29:22Z</time>
      </trkpt>
      <trkpt lat="47.80083" lon="6.54827">
        <ele>481.8</ele>
        <time>2023-04-10T07:29:30Z</time>
      </trkpt>
      <trkpt lat="47.80085" lon="6.54841">
        <ele>482.2</ele>
        <time>2023-04-10T07:29:37Z</time>
      </trkpt>
      <trkpt lat="47.80084" lon="6.54855">
        <ele>481.3</ele>
        <time>2023-04-10T07:29:44Z</time>
      </trkpt>
      <trkpt lat="47.80088" lon="6.5487">
        <ele>480.3</ele>
        <time>2023-04-10T07:29:52Z</time>
      </trkpt>
      <trkpt lat="47.80092" lon="6.54882">
        <ele>479.4</ele>
        <time>2023-04-10T07:29:59Z</time>
      </trkpt>
      <trkpt lat="47.80099" lon="6.54891">
        <ele>478.6</ele>
        <time>2023-04-10T07:30:07Z</time>
      </trkpt>
      <trkpt lat="47.80104" lon="6.54904">
        <ele>477.6</ele>
        <time>2023-04-10T07:30:14Z</time>
      </trkpt>
      <trkpt lat="47.80111" lon="6.54915">
        <ele>476.8</ele>
        <time>2023-04-10T07:30:22Z</time>
      </trkpt>
      <trkpt lat="47.80116" lon="6.54926">
        <ele>475.9</ele>
        <time>2023-04-10T07:30:31Z</time>
      </trkpt>
      <trkpt lat="47.80116" lon="6.54927">
        <ele>475.9</ele>
        <time>2023-04-10T07:30:34Z</time>
      </trkpt>
      <trkpt lat="47.80116" lon="6.54927">
        <ele>475.9</ele>
        <time>2023-04-10T07:30:36Z</time>
      </trkpt>
      <trkpt lat="47.80125" lon="6.54929">
        <ele>476</ele>
        <time>2023-04-10T07:30:43Z</time>
      </trkpt>
      <trkpt lat="47.80134" lon="6.54927">
        <ele>476</ele>
        <time>2023-04-10T07:30:49Z</time>
      </trkpt>
      <trkpt lat="47.80144" lon="6.54923">
        <ele>476.1</ele>
        <time>2023-04-10T07:30:55Z</time>
      </trkpt>
      <trkpt lat="47.80153" lon="6.54919">
        <ele>476.3</ele>
        <time>2023-04-10T07:31:01Z</time>
      </trkpt>
      <trkpt lat="47.80162" lon="6.54916">
        <ele>476.5</ele>
        <time>2023-04-10T07:31:08Z</time>
      </trkpt>
      <trkpt lat="47.80163" lon="6.54917">
        <ele>476.5</ele>
        <time>2023-04-10T07:31:12Z</time>
      </trkpt>
      <trkpt lat="47.80163" lon="6.54917">
        <ele>476.5</ele>
        <time>2023-04-10T07:31:13Z</time>
      </trkpt>
      <trkpt lat="47.80172" lon="6.54917">
        <ele>476.7</ele>
        <time>2023-04-10T07:31:23Z</time>
      </trkpt>
      <trkpt lat="47.80181" lon="6.54917">
        <ele>476.9</ele>
        <time>2023-04-10T07:31:29Z</time>
      </trkpt>
      <trkpt lat="47.80192" lon="6.54916">
        <ele>477.1</ele>
        <time>2023-04-10T07:31:37Z</time>
      </trkpt>
      <trkpt lat="47.80202" lon="6.54915">
        <ele>477.3</ele>
        <time>2023-04-10T07:31:43Z</time>
      </trkpt>
      <trkpt lat="47.80211" lon="6.54913">
        <ele>477.5</ele>
        <time>2023-04-10T07:31:49Z</time>
      </trkpt>
      <trkpt lat="47.8022" lon="6.54911">
        <ele>477.8</ele>
        <time>2023-04-10T07:31:56Z</time>
      </trkpt>
      <trkpt lat="47.80225" lon="6.5491">
        <ele>478.4</ele>
        <time>2023-04-10T07:32:05Z</time>
      </trkpt>
      <trkpt lat="47.80225" lon="6.54909">
        <ele>477.9</ele>
        <time>2023-04-10T07:32:07Z</time>
      </trkpt>
      <trkpt lat="47.80234" lon="6.54915">
        <ele>479.2</ele>
        <time>2023-04-10T07:32:15Z</time>
      </trkpt>
      <trkpt lat="47.80242" lon="6.54922">
        <ele>480.1</ele>
        <time>2023-04-10T07:32:23Z</time>
      </trkpt>
      <trkpt lat="47.80247" lon="6.54935">
        <ele>479.4</ele>
        <time>2023-04-10T07:32:30Z</time>
      </trkpt>
      <trkpt lat="47.80251" lon="6.54946">
        <ele>477.6</ele>
        <time>2023-04-10T07:32:36Z</time>
      </trkpt>
      <trkpt lat="47.80256" lon="6.54959">
        <ele>477.9</ele>
        <time>2023-04-10T07:32:44Z</time>
      </trkpt>
      <trkpt lat="47.80259" lon="6.54974">
        <ele>478.4</ele>
        <time>2023-04-10T07:32:52Z</time>
      </trkpt>
      <trkpt lat="47.80262" lon="6.54988">
        <ele>478.9</ele>
        <time>2023-04-10T07:33:00Z</time>
      </trkpt>
      <trkpt lat="47.80267" lon="6.55001">
        <ele>479.8</ele>
        <time>2023-04-10T07:33:07Z</time>
      </trkpt>
      <trkpt lat="47.8027" lon="6.55013">
        <ele>480</ele>
        <time>2023-04-10T07:33:15Z</time>
      </trkpt>
      <trkpt lat="47.80268" lon="6.55027">
        <ele>479.2</ele>
        <time>2023-04-10T07:33:22Z</time>
      </trkpt>
      <trkpt lat="47.80264" lon="6.55039">
        <ele>479.2</ele>
        <time>2023-04-10T07:33:29Z</time>
      </trkpt>
      <trkpt lat="47.80258" lon="6.5505">
        <ele>479.2</ele>
        <time>2023-04-10T07:33:36Z</time>
      </trkpt>
      <trkpt lat="47.80252" lon="6.5506">
        <ele>479.2</ele>
        <time>2023-04-10T07:33:43Z</time>
      </trkpt>
      <trkpt lat="47.8025" lon="6.55069">
        <ele>479.2</ele>
        <time>2023-04-10T07:33:51Z</time>
      </trkpt>
      <trkpt lat="47.8025" lon="6.55069">
        <ele>479.2</ele>
        <time>2023-04-10T07:33:52Z</time>
      </trkpt>
      <trkpt lat="47.80259" lon="6.55062">
        <ele>479.2</ele>
        <time>2023-04-10T07:34:03Z</time>
      </trkpt>
      <trkpt lat="47.80266" lon="6.55052">
        <ele>479.2</ele>
        <time>2023-04-10T07:34:13Z</time>
      </trkpt>
      <trkpt lat="47.80274" lon="6.55043">
        <ele>479.2</ele>
        <time>2023-04-10T07:34:22Z</time>
      </trkpt>
      <trkpt lat="47.80282" lon="6.55034">
        <ele>479.3</ele>
        <time>2023-04-10T07:34:31Z</time>
      </trkpt>
      <trkpt lat="47.80289" lon="6.55025">
        <ele>479.5</ele>
        <time>2023-04-10T07:34:39Z</time>
      </trkpt>
      <trkpt lat="47.80296" lon="6.55015">
        <ele>479.6</ele>
        <time>2023-04-10T07:34:47Z</time>
      </trkpt>
      <trkpt lat="47.80304" lon="6.55007">
        <ele>479.7</ele>
        <time>2023-04-10T07:34:53Z</time>
      </trkpt>
      <trkpt lat="47.80311" lon="6.54996">
        <ele>479.8</ele>
        <time>2023-04-10T07:35:01Z</time>
      </trkpt>
      <trkpt lat="47.80318" lon="6.54987">
        <ele>479.8</ele>
        <time>2023-04-10T07:35:08Z</time>
      </trkpt>
      <trkpt lat="47.80326" lon="6.54977">
        <ele>479.8</ele>
        <time>2023-04-10T07:35:15Z</time>
      </trkpt>
      <trkpt lat="47.80332" lon="6.54966">
        <ele>479.5</ele>
        <time>2023-04-10T07:35:24Z</time>
      </trkpt>
      <trkpt lat="47.8034" lon="6.54956">
        <ele>479.1</ele>
        <time>2023-04-10T07:35:31Z</time>
      </trkpt>
      <trkpt lat="47.80348" lon="6.54947">
        <ele>478.6</ele>
        <time>2023-04-10T07:35:38Z</time>
      </trkpt>
      <trkpt lat="47.80357" lon="6.54939">
        <ele>477.9</ele>
        <time>2023-04-10T07:35:43Z</time>
      </trkpt>
      <trkpt lat="47.8036" lon="6.54925">
        <ele>477.2</ele>
        <time>2023-04-10T07:35:56Z</time>
      </trkpt>
      <trkpt lat="47.80367" lon="6.54916">
        <ele>476.5</ele>
        <time>2023-04-10T07:36:03Z</time>
      </trkpt>
      <trkpt lat="47.80374" lon="6.54906">
        <ele>475.7</ele>
        <time>2023-04-10T07:36:11Z</time>
      </trkpt>
      <trkpt lat="47.80381" lon="6.54896">
        <ele>474.8</ele>
        <time>2023-04-10T07:36:19Z</time>
      </trkpt>
      <trkpt lat="47.80385" lon="6.54883">
        <ele>473.9</ele>
        <time>2023-04-10T07:36:25Z</time>
      </trkpt>
      <trkpt lat="47.8039" lon="6.5487">
        <ele>473.1</ele>
        <time>2023-04-10T07:36:32Z</time>
      </trkpt>
      <trkpt lat="47.80394" lon="6.54858">
        <ele>472.4</ele>
        <time>2023-04-10T07:36:40Z</time>
      </trkpt>
      <trkpt lat="47.804" lon="6.54847">
        <ele>471.7</ele>
        <time>2023-04-10T07:36:48Z</time>
      </trkpt>
      <trkpt lat="47.80406" lon="6.54835">
        <ele>471</ele>
        <time>2023-04-10T07:36:56Z</time>
      </trkpt>
      <trkpt lat="47.8041" lon="6.54823">
        <ele>470.4</ele>
        <time>2023-04-10T07:37:03Z</time>
      </trkpt>
      <trkpt lat="47.8041" lon="6.54809">
        <ele>468.6</ele>
        <time>2023-04-10T07:37:11Z</time>
      </trkpt>
      <trkpt lat="47.80406" lon="6.54796">
        <ele>468.6</ele>
        <time>2023-04-10T07:37:19Z</time>
      </trkpt>
      <trkpt lat="47.80404" lon="6.54783">
        <ele>468.3</ele>
        <time>2023-04-10T07:37:29Z</time>
      </trkpt>
      <trkpt lat="47.804" lon="6.54769">
        <ele>468.3</ele>
        <time>2023-04-10T07:37:36Z</time>
      </trkpt>
      <trkpt lat="47.80393" lon="6.5476">
        <ele>468.4</ele>
        <time>2023-04-10T07:37:44Z</time>
      </trkpt>
      <trkpt lat="47.80386" lon="6.5475">
        <ele>468.6</ele>
        <time>2023-04-10T07:37:51Z</time>
      </trkpt>
      <trkpt lat="47.80378" lon="6.54743">
        <ele>468.9</ele>
        <time>2023-04-10T07:37:57Z</time>
      </trkpt>
      <trkpt lat="47.80371" lon="6.54734">
        <ele>469.3</ele>
        <time>2023-04-10T07:38:04Z</time>
      </trkpt>
      <trkpt lat="47.80364" lon="6.54724">
        <ele>469.6</ele>
        <time>2023-04-10T07:38:11Z</time>
      </trkpt>
      <trkpt lat="47.80356" lon="6.54716">
        <ele>470</ele>
        <time>2023-04-10T07:38:18Z</time>
      </trkpt>
      <trkpt lat="47.80348" lon="6.54707">
        <ele>470.4</ele>
        <time>2023-04-10T07:38:26Z</time>
      </trkpt>
      <trkpt lat="47.8034" lon="6.547">
        <ele>470.7</ele>
        <time>2023-04-10T07:38:32Z</time>
      </trkpt>
      <trkpt lat="47.80332" lon="6.54692">
        <ele>471</ele>
        <time>2023-04-10T07:38:38Z</time>
      </trkpt>
      <trkpt lat="47.80324" lon="6.54684">
        <ele>471.2</ele>
        <time>2023-04-10T07:38:45Z</time>
      </trkpt>
      <trkpt lat="47.80316" lon="6.54676">
        <ele>471.5</ele>
        <time>2023-04-10T07:38:52Z</time>
      </trkpt>
      <trkpt lat="47.80308" lon="6.54669">
        <ele>471.7</ele>
        <time>2023-04-10T07:38:58Z</time>
      </trkpt>
      <trkpt lat="47.80299" lon="6.54661">
        <ele>472</ele>
        <time>2023-04-10T07:39:05Z</time>
      </trkpt>
      <trkpt lat="47.80292" lon="6.54652">
        <ele>472.2</ele>
        <time>2023-04-10T07:39:12Z</time>
      </trkpt>
      <trkpt lat="47.80284" lon="6.54644">
        <ele>472.4</ele>
        <time>2023-04-10T07:39:18Z</time>
      </trkpt>
      <trkpt lat="47.80276" lon="6.54635">
        <ele>472.6</ele>
        <time>2023-04-10T07:39:25Z</time>
      </trkpt>
      <trkpt lat="47.80268" lon="6.54625">
        <ele>472.7</ele>
        <time>2023-04-10T07:39:32Z</time>
      </trkpt>
      <trkpt lat="47.8026" lon="6.54616">
        <ele>472.8</ele>
        <time>2023-04-10T07:39:39Z</time>
      </trkpt>
      <trkpt lat="47.80254" lon="6.54605">
        <ele>473.3</ele>
        <time>2023-04-10T07:39:46Z</time>
      </trkpt>
      <trkpt lat="47.80248" lon="6.54594">
        <ele>473.8</ele>
        <time>2023-04-10T07:39:53Z</time>
      </trkpt>
      <trkpt lat="47.80243" lon="6.54582">
        <ele>474.3</ele>
        <time>2023-04-10T07:40:00Z</time>
      </trkpt>
      <trkpt lat="47.80238" lon="6.5457">
        <ele>474.8</ele>
        <time>2023-04-10T07:40:07Z</time>
      </trkpt>
      <trkpt lat="47.80234" lon="6.54558">
        <ele>475.2</ele>
        <time>2023-04-10T07:40:14Z</time>
      </trkpt>
      <trkpt lat="47.8023" lon="6.54544">
        <ele>475.7</ele>
        <time>2023-04-10T07:40:22Z</time>
      </trkpt>
      <trkpt lat="47.80226" lon="6.54531">
        <ele>476</ele>
        <time>2023-04-10T07:40:29Z</time>
      </trkpt>
      <trkpt lat="47.80223" lon="6.54518">
        <ele>476.3</ele>
        <time>2023-04-10T07:40:36Z</time>
      </trkpt>
      <trkpt lat="47.80219" lon="6.54503">
        <ele>476.6</ele>
        <time>2023-04-10T07:40:44Z</time>
      </trkpt>
      <trkpt lat="47.80214" lon="6.54491">
        <ele>476.9</ele>
        <time>2023-04-10T07:40:51Z</time>
      </trkpt>
      <trkpt lat="47.80209" lon="6.54479">
        <ele>477.2</ele>
        <time>2023-04-10T07:40:58Z</time>
      </trkpt>
      <trkpt lat="47.80206" lon="6.54467">
        <ele>477.6</ele>
        <time>2023-04-10T07:41:05Z</time>
      </trkpt>
      <trkpt lat="47.80201" lon="6.54454">
        <ele>477.8</ele>
        <time>2023-04-10T07:41:13Z</time>
      </trkpt>
      <trkpt lat="47.80198" lon="6.54442">
        <ele>478</ele>
        <time>2023-04-10T07:41:21Z</time>
      </trkpt>
      <trkpt lat="47.80196" lon="6.54426">
        <ele>478.1</ele>
        <time>2023-04-10T07:41:29Z</time>
      </trkpt>
      <trkpt lat="47.80194" lon="6.54413">
        <ele>478.1</ele>
        <time>2023-04-10T07:41:36Z</time>
      </trkpt>
      <trkpt lat="47.80192" lon="6.544">
        <ele>478</ele>
        <time>2023-04-10T07:41:43Z</time>
      </trkpt>
      <trkpt lat="47.80191" lon="6.54386">
        <ele>477.9</ele>
        <time>2023-04-10T07:41:50Z</time>
      </trkpt>
      <trkpt lat="47.80188" lon="6.54373">
        <ele>477.8</ele>
        <time>2023-04-10T07:41:58Z</time>
      </trkpt>
      <trkpt lat="47.80186" lon="6.5436">
        <ele>477.8</ele>
        <time>2023-04-10T07:42:05Z</time>
      </trkpt>
      <trkpt lat="47.80184" lon="6.54346">
        <ele>477.8</ele>
        <time>2023-04-10T07:42:12Z</time>
      </trkpt>
      <trkpt lat="47.80181" lon="6.54332">
        <ele>477.8</ele>
        <time>2023-04-10T07:42:20Z</time>
      </trkpt>
      <trkpt lat="47.80179" lon="6.54319">
        <ele>477.9</ele>
        <time>2023-04-10T07:42:27Z</time>
      </trkpt>
      <trkpt lat="47.80177" lon="6.54306">
        <ele>478</ele>
        <time>2023-04-10T07:42:34Z</time>
      </trkpt>
      <trkpt lat="47.80175" lon="6.54292">
        <ele>478.1</ele>
        <time>2023-04-10T07:42:42Z</time>
      </trkpt>
      <trkpt lat="47.80173" lon="6.54278">
        <ele>478.2</ele>
        <time>2023-04-10T07:42:49Z</time>
      </trkpt>
      <trkpt lat="47.80172" lon="6.54264">
        <ele>478.3</ele>
        <time>2023-04-10T07:42:57Z</time>
      </trkpt>
      <trkpt lat="47.8017" lon="6.5425">
        <ele>478.4</ele>
        <time>2023-04-10T07:43:05Z</time>
      </trkpt>
      <trkpt lat="47.80168" lon="6.54236">
        <ele>478.4</ele>
        <time>2023-04-10T07:43:12Z</time>
      </trkpt>
      <trkpt lat="47.80167" lon="6.54221">
        <ele>478.4</ele>
        <time>2023-04-10T07:43:20Z</time>
      </trkpt>
      <trkpt lat="47.80166" lon="6.54208">
        <ele>478.3</ele>
        <time>2023-04-10T07:43:27Z</time>
      </trkpt>
      <trkpt lat="47.80165" lon="6.54194">
        <ele>478.2</ele>
        <time>2023-04-10T07:43:34Z</time>
      </trkpt>
      <trkpt lat="47.80164" lon="6.54181">
        <ele>478.1</ele>
        <time>2023-04-10T07:43:41Z</time>
      </trkpt>
      <trkpt lat="47.80163" lon="6.54167">
        <ele>477.9</ele>
        <time>2023-04-10T07:43:48Z</time>
      </trkpt>
      <trkpt lat="47.80163" lon="6.54152">
        <ele>477.7</ele>
        <time>2023-04-10T07:43:56Z</time>
      </trkpt>
      <trkpt lat="47.80162" lon="6.54139">
        <ele>477.5</ele>
        <time>2023-04-10T07:44:03Z</time>
      </trkpt>
      <trkpt lat="47.80162" lon="6.54124">
        <ele>477.2</ele>
        <time>2023-04-10T07:44:11Z</time>
      </trkpt>
      <trkpt lat="47.80161" lon="6.5411">
        <ele>476.9</ele>
        <time>2023-04-10T07:44:18Z</time>
      </trkpt>
      <trkpt lat="47.8016" lon="6.54095">
        <ele>476.4</ele>
        <time>2023-04-10T07:44:26Z</time>
      </trkpt>
      <trkpt lat="47.80158" lon="6.54082">
        <ele>475.9</ele>
        <time>2023-04-10T07:44:33Z</time>
      </trkpt>
      <trkpt lat="47.80155" lon="6.54069">
        <ele>475.3</ele>
        <time>2023-04-10T07:44:40Z</time>
      </trkpt>
      <trkpt lat="47.80152" lon="6.54056">
        <ele>474.7</ele>
        <time>2023-04-10T07:44:47Z</time>
      </trkpt>
      <trkpt lat="47.80148" lon="6.54042">
        <ele>474</ele>
        <time>2023-04-10T07:44:55Z</time>
      </trkpt>
      <trkpt lat="47.80144" lon="6.54028">
        <ele>473.4</ele>
        <time>2023-04-10T07:45:03Z</time>
      </trkpt>
      <trkpt lat="47.80141" lon="6.54015">
        <ele>472.9</ele>
        <time>2023-04-10T07:45:11Z</time>
      </trkpt>
      <trkpt lat="47.80139" lon="6.54001">
        <ele>472.6</ele>
        <time>2023-04-10T07:45:21Z</time>
      </trkpt>
      <trkpt lat="47.8014" lon="6.54">
        <ele>472.6</ele>
        <time>2023-04-10T07:45:24Z</time>
      </trkpt>
      <trkpt lat="47.80139" lon="6.54">
        <ele>472.7</ele>
        <time>2023-04-10T07:45:26Z</time>
      </trkpt>
      <trkpt lat="47.80139" lon="6.53999">
        <ele>472.7</ele>
        <time>2023-04-10T07:45:27Z</time>
      </trkpt>
      <trkpt lat="47.80139" lon="6.53999">
        <ele>472.7</ele>
        <time>2023-04-10T07:45:28Z</time>
      </trkpt>
      <trkpt lat="47.80139" lon="6.53999">
        <ele>472.7</ele>
        <time>2023-04-10T07:45:29Z</time>
      </trkpt>
      <trkpt lat="47.80139" lon="6.53999">
        <ele>472.7</ele>
        <time>2023-04-10T07:45:30Z</time>
      </trkpt>
      <trkpt lat="47.80138" lon="6.53999">
        <ele>472.7</ele>
        <time>2023-04-10T07:45:35Z</time>
      </trkpt>
      <trkpt lat="47.80138" lon="6.53999">
        <ele>472.7</ele>
        <time>2023-04-10T07:45:47Z</time>
      </trkpt>
      <trkpt lat="47.80143" lon="6.54">
        <ele>472.7</ele>
        <time>2023-04-10T07:45:55Z</time>
      </trkpt>
      <trkpt lat="47.80143" lon="6.54">
        <ele>472.7</ele>
        <time>2023-04-10T07:45:56Z</time>
      </trkpt>
      <trkpt lat="47.80143" lon="6.54">
        <ele>472.7</ele>
        <time>2023-04-10T07:45:58Z</time>
      </trkpt>
      <trkpt lat="47.80143" lon="6.54">
        <ele>472.7</ele>
        <time>2023-04-10T07:46:03Z</time>
      </trkpt>
      <trkpt lat="47.80142" lon="6.54">
        <ele>472.7</ele>
        <time>2023-04-10T07:46:05Z</time>
      </trkpt>
      <trkpt lat="47.80143" lon="6.53999">
        <ele>472.7</ele>
        <time>2023-04-10T07:46:07Z</time>
      </trkpt>
      <trkpt lat="47.80143" lon="6.53999">
        <ele>472.7</ele>
        <time>2023-04-10T07:46:08Z</time>
      </trkpt>
      <trkpt lat="47.80143" lon="6.53999">
        <ele>472.7</ele>
        <time>2023-04-10T07:46:09Z</time>
      </trkpt>
      <trkpt lat="47.80143" lon="6.53999">
        <ele>472.7</ele>
        <time>2023-04-10T07:46:10Z</time>
      </trkpt>
      <trkpt lat="47.80143" lon="6.53998">
        <ele>472.7</ele>
        <time>2023-04-10T07:46:22Z</time>
      </trkpt>
      <trkpt lat="47.80148" lon="6.53985">
        <ele>472.9</ele>
        <time>2023-04-10T07:46:31Z</time>
      </trkpt>
      <trkpt lat="47.80153" lon="6.53973">
        <ele>473.1</ele>
        <time>2023-04-10T07:46:39Z</time>
      </trkpt>
      <trkpt lat="47.8016" lon="6.53963">
        <ele>473.4</ele>
        <time>2023-04-10T07:46:47Z</time>
      </trkpt>
      <trkpt lat="47.80167" lon="6.53952">
        <ele>473.7</ele>
        <time>2023-04-10T07:46:56Z</time>
      </trkpt>
      <trkpt lat="47.80173" lon="6.53941">
        <ele>474</ele>
        <time>2023-04-10T07:47:04Z</time>
      </trkpt>
      <trkpt lat="47.8018" lon="6.53932">
        <ele>474.2</ele>
        <time>2023-04-10T07:47:11Z</time>
      </trkpt>
      <trkpt lat="47.80188" lon="6.53922">
        <ele>474.5</ele>
        <time>2023-04-10T07:47:18Z</time>
      </trkpt>
      <trkpt lat="47.80196" lon="6.53916">
        <ele>474.6</ele>
        <time>2023-04-10T07:47:24Z</time>
      </trkpt>
      <trkpt lat="47.80205" lon="6.53912">
        <ele>474.7</ele>
        <time>2023-04-10T07:47:31Z</time>
      </trkpt>
      <trkpt lat="47.80214" lon="6.53905">
        <ele>474.7</ele>
        <time>2023-04-10T07:47:40Z</time>
      </trkpt>
      <trkpt lat="47.80221" lon="6.53897">
        <ele>474.7</ele>
        <time>2023-04-10T07:47:49Z</time>
      </trkpt>
      <trkpt lat="47.80228" lon="6.53887">
        <ele>474.7</ele>
        <time>2023-04-10T07:47:57Z</time>
      </trkpt>
      <trkpt lat="47.80233" lon="6.53876">
        <ele>474.6</ele>
        <time>2023-04-10T07:48:05Z</time>
      </trkpt>
      <trkpt lat="47.80237" lon="6.53863">
        <ele>474.5</ele>
        <time>2023-04-10T07:48:13Z</time>
      </trkpt>
      <trkpt lat="47.8024" lon="6.5385">
        <ele>474.4</ele>
        <time>2023-04-10T07:48:22Z</time>
      </trkpt>
      <trkpt lat="47.80244" lon="6.53837">
        <ele>474.2</ele>
        <time>2023-04-10T07:48:30Z</time>
      </trkpt>
      <trkpt lat="47.80248" lon="6.53824">
        <ele>473.8</ele>
        <time>2023-04-10T07:48:36Z</time>
      </trkpt>
      <trkpt lat="47.80251" lon="6.53814">
        <ele>473.5</ele>
        <time>2023-04-10T07:48:45Z</time>
      </trkpt>
      <trkpt lat="47.80251" lon="6.53814">
        <ele>473.5</ele>
        <time>2023-04-10T07:48:46Z</time>
      </trkpt>
      <trkpt lat="47.80255" lon="6.538">
        <ele>473.2</ele>
        <time>2023-04-10T07:48:54Z</time>
      </trkpt>
      <trkpt lat="47.80258" lon="6.53787">
        <ele>473.1</ele>
        <time>2023-04-10T07:49:01Z</time>
      </trkpt>
      <trkpt lat="47.80261" lon="6.53774">
        <ele>473</ele>
        <time>2023-04-10T07:49:08Z</time>
      </trkpt>
      <trkpt lat="47.80263" lon="6.5376">
        <ele>473</ele>
        <time>2023-04-10T07:49:16Z</time>
      </trkpt>
      <trkpt lat="47.80266" lon="6.53745">
        <ele>473.2</ele>
        <time>2023-04-10T07:49:22Z</time>
      </trkpt>
      <trkpt lat="47.80269" lon="6.53731">
        <ele>473.3</ele>
        <time>2023-04-10T07:49:28Z</time>
      </trkpt>
      <trkpt lat="47.80272" lon="6.53717">
        <ele>473.5</ele>
        <time>2023-04-10T07:49:34Z</time>
      </trkpt>
      <trkpt lat="47.80277" lon="6.53705">
        <ele>473.6</ele>
        <time>2023-04-10T07:49:43Z</time>
      </trkpt>
      <trkpt lat="47.80284" lon="6.53695">
        <ele>473.7</ele>
        <time>2023-04-10T07:49:54Z</time>
      </trkpt>
      <trkpt lat="47.80284" lon="6.53695">
        <ele>473.7</ele>
        <time>2023-04-10T07:49:56Z</time>
      </trkpt>
      <trkpt lat="47.80284" lon="6.53694">
        <ele>473.7</ele>
        <time>2023-04-10T07:49:58Z</time>
      </trkpt>
      <trkpt lat="47.80291" lon="6.53684">
        <ele>473.8</ele>
        <time>2023-04-10T07:50:04Z</time>
      </trkpt>
      <trkpt lat="47.80297" lon="6.53674">
        <ele>473.9</ele>
        <time>2023-04-10T07:50:10Z</time>
      </trkpt>
      <trkpt lat="47.80305" lon="6.53665">
        <ele>474</ele>
        <time>2023-04-10T07:50:16Z</time>
      </trkpt>
      <trkpt lat="47.80312" lon="6.53657">
        <ele>474</ele>
        <time>2023-04-10T07:50:22Z</time>
      </trkpt>
      <trkpt lat="47.80318" lon="6.53646">
        <ele>474.1</ele>
        <time>2023-04-10T07:50:28Z</time>
      </trkpt>
      <trkpt lat="47.80323" lon="6.53635">
        <ele>474.2</ele>
        <time>2023-04-10T07:50:34Z</time>
      </trkpt>
      <trkpt lat="47.80329" lon="6.53622">
        <ele>474.4</ele>
        <time>2023-04-10T07:50:43Z</time>
      </trkpt>
      <trkpt lat="47.80334" lon="6.5361">
        <ele>474.6</ele>
        <time>2023-04-10T07:50:50Z</time>
      </trkpt>
      <trkpt lat="47.80339" lon="6.53597">
        <ele>474.7</ele>
        <time>2023-04-10T07:50:56Z</time>
      </trkpt>
      <trkpt lat="47.80345" lon="6.53588">
        <ele>474.7</ele>
        <time>2023-04-10T07:51:02Z</time>
      </trkpt>
      <trkpt lat="47.80353" lon="6.53579">
        <ele>474.6</ele>
        <time>2023-04-10T07:51:09Z</time>
      </trkpt>
      <trkpt lat="47.80361" lon="6.5357">
        <ele>474.4</ele>
        <time>2023-04-10T07:51:17Z</time>
      </trkpt>
      <trkpt lat="47.80369" lon="6.53561">
        <ele>474.2</ele>
        <time>2023-04-10T07:51:24Z</time>
      </trkpt>
      <trkpt lat="47.80377" lon="6.53552">
        <ele>474</ele>
        <time>2023-04-10T07:51:32Z</time>
      </trkpt>
      <trkpt lat="47.80385" lon="6.53543">
        <ele>473.9</ele>
        <time>2023-04-10T07:51:39Z</time>
      </trkpt>
      <trkpt lat="47.80391" lon="6.53533">
        <ele>473.7</ele>
        <time>2023-04-10T07:51:45Z</time>
      </trkpt>
      <trkpt lat="47.80399" lon="6.53524">
        <ele>473.6</ele>
        <time>2023-04-10T07:51:52Z</time>
      </trkpt>
      <trkpt lat="47.80407" lon="6.53516">
        <ele>473.5</ele>
        <time>2023-04-10T07:51:59Z</time>
      </trkpt>
      <trkpt lat="47.80414" lon="6.53506">
        <ele>473.3</ele>
        <time>2023-04-10T07:52:07Z</time>
      </trkpt>
      <trkpt lat="47.80421" lon="6.53497">
        <ele>473.1</ele>
        <time>2023-04-10T07:52:15Z</time>
      </trkpt>
      <trkpt lat="47.80428" lon="6.53486">
        <ele>472.9</ele>
        <time>2023-04-10T07:52:23Z</time>
      </trkpt>
      <trkpt lat="47.80434" lon="6.53476">
        <ele>472.7</ele>
        <time>2023-04-10T07:52:30Z</time>
      </trkpt>
      <trkpt lat="47.80441" lon="6.53466">
        <ele>472.6</ele>
        <time>2023-04-10T07:52:37Z</time>
      </trkpt>
      <trkpt lat="47.80447" lon="6.53456">
        <ele>472.6</ele>
        <time>2023-04-10T07:52:44Z</time>
      </trkpt>
      <trkpt lat="47.80454" lon="6.53446">
        <ele>472.6</ele>
        <time>2023-04-10T07:52:51Z</time>
      </trkpt>
      <trkpt lat="47.80461" lon="6.53435">
        <ele>472.6</ele>
        <time>2023-04-10T07:52:58Z</time>
      </trkpt>
      <trkpt lat="47.80467" lon="6.53425">
        <ele>472.6</ele>
        <time>2023-04-10T07:53:05Z</time>
      </trkpt>
      <trkpt lat="47.80474" lon="6.53414">
        <ele>472.7</ele>
        <time>2023-04-10T07:53:13Z</time>
      </trkpt>
      <trkpt lat="47.80481" lon="6.53404">
        <ele>472.9</ele>
        <time>2023-04-10T07:53:20Z</time>
      </trkpt>
      <trkpt lat="47.80487" lon="6.53393">
        <ele>473</ele>
        <time>2023-04-10T07:53:27Z</time>
      </trkpt>
      <trkpt lat="47.80493" lon="6.53383">
        <ele>473</ele>
        <time>2023-04-10T07:53:34Z</time>
      </trkpt>
      <trkpt lat="47.80498" lon="6.53371">
        <ele>473</ele>
        <time>2023-04-10T07:53:41Z</time>
      </trkpt>
      <trkpt lat="47.80503" lon="6.53359">
        <ele>473</ele>
        <time>2023-04-10T07:53:49Z</time>
      </trkpt>
      <trkpt lat="47.80509" lon="6.53346">
        <ele>472.8</ele>
        <time>2023-04-10T07:53:57Z</time>
      </trkpt>
      <trkpt lat="47.80515" lon="6.53334">
        <ele>472.6</ele>
        <time>2023-04-10T07:54:05Z</time>
      </trkpt>
      <trkpt lat="47.80521" lon="6.53322">
        <ele>472.3</ele>
        <time>2023-04-10T07:54:13Z</time>
      </trkpt>
      <trkpt lat="47.80527" lon="6.53311">
        <ele>472.1</ele>
        <time>2023-04-10T07:54:20Z</time>
      </trkpt>
      <trkpt lat="47.80533" lon="6.53302">
        <ele>471.8</ele>
        <time>2023-04-10T07:54:27Z</time>
      </trkpt>
      <trkpt lat="47.80539" lon="6.53292">
        <ele>471.5</ele>
        <time>2023-04-10T07:54:34Z</time>
      </trkpt>
      <trkpt lat="47.80546" lon="6.5328">
        <ele>471.1</ele>
        <time>2023-04-10T07:54:42Z</time>
      </trkpt>
      <trkpt lat="47.80555" lon="6.53273">
        <ele>470.8</ele>
        <time>2023-04-10T07:54:50Z</time>
      </trkpt>
      <trkpt lat="47.80561" lon="6.53262">
        <ele>470.5</ele>
        <time>2023-04-10T07:54:58Z</time>
      </trkpt>
      <trkpt lat="47.8056" lon="6.53249">
        <ele>470.6</ele>
        <time>2023-04-10T07:55:05Z</time>
      </trkpt>
      <trkpt lat="47.80557" lon="6.53235">
        <ele>470.9</ele>
        <time>2023-04-10T07:55:12Z</time>
      </trkpt>
      <trkpt lat="47.80555" lon="6.53221">
        <ele>471.2</ele>
        <time>2023-04-10T07:55:19Z</time>
      </trkpt>
      <trkpt lat="47.80553" lon="6.53208">
        <ele>471.4</ele>
        <time>2023-04-10T07:55:26Z</time>
      </trkpt>
      <trkpt lat="47.80552" lon="6.53193">
        <ele>471.6</ele>
        <time>2023-04-10T07:55:34Z</time>
      </trkpt>
      <trkpt lat="47.80551" lon="6.53178">
        <ele>471.7</ele>
        <time>2023-04-10T07:55:42Z</time>
      </trkpt>
      <trkpt lat="47.8055" lon="6.53163">
        <ele>471.9</ele>
        <time>2023-04-10T07:55:50Z</time>
      </trkpt>
      <trkpt lat="47.80547" lon="6.5315">
        <ele>471.9</ele>
        <time>2023-04-10T07:55:57Z</time>
      </trkpt>
      <trkpt lat="47.80544" lon="6.53137">
        <ele>471.8</ele>
        <time>2023-04-10T07:56:04Z</time>
      </trkpt>
      <trkpt lat="47.80541" lon="6.53123">
        <ele>471.8</ele>
        <time>2023-04-10T07:56:12Z</time>
      </trkpt>
      <trkpt lat="47.80537" lon="6.53108">
        <ele>471.8</ele>
        <time>2023-04-10T07:56:20Z</time>
      </trkpt>
      <trkpt lat="47.80535" lon="6.53094">
        <ele>471.8</ele>
        <time>2023-04-10T07:56:27Z</time>
      </trkpt>
      <trkpt lat="47.80533" lon="6.5308">
        <ele>471.9</ele>
        <time>2023-04-10T07:56:34Z</time>
      </trkpt>
      <trkpt lat="47.80532" lon="6.53067">
        <ele>472.1</ele>
        <time>2023-04-10T07:56:41Z</time>
      </trkpt>
      <trkpt lat="47.8053" lon="6.53053">
        <ele>472.3</ele>
        <time>2023-04-10T07:56:48Z</time>
      </trkpt>
      <trkpt lat="47.80524" lon="6.53042">
        <ele>472.6</ele>
        <time>2023-04-10T07:56:55Z</time>
      </trkpt>
      <trkpt lat="47.80517" lon="6.53034">
        <ele>473.2</ele>
        <time>2023-04-10T07:57:02Z</time>
      </trkpt>
      <trkpt lat="47.8051" lon="6.53025">
        <ele>473.8</ele>
        <time>2023-04-10T07:57:10Z</time>
      </trkpt>
      <trkpt lat="47.80513" lon="6.53011">
        <ele>473.8</ele>
        <time>2023-04-10T07:57:22Z</time>
      </trkpt>
      <trkpt lat="47.80514" lon="6.52997">
        <ele>473.5</ele>
        <time>2023-04-10T07:57:31Z</time>
      </trkpt>
      <trkpt lat="47.80513" lon="6.52983">
        <ele>472.9</ele>
        <time>2023-04-10T07:57:38Z</time>
      </trkpt>
      <trkpt lat="47.80512" lon="6.52968">
        <ele>472.1</ele>
        <time>2023-04-10T07:57:46Z</time>
      </trkpt>
      <trkpt lat="47.80512" lon="6.52955">
        <ele>471.4</ele>
        <time>2023-04-10T07:57:52Z</time>
      </trkpt>
      <trkpt lat="47.80511" lon="6.5294">
        <ele>471</ele>
        <time>2023-04-10T07:58:00Z</time>
      </trkpt>
      <trkpt lat="47.8051" lon="6.52927">
        <ele>470.7</ele>
        <time>2023-04-10T07:58:08Z</time>
      </trkpt>
      <trkpt lat="47.80508" lon="6.52913">
        <ele>470.6</ele>
        <time>2023-04-10T07:58:15Z</time>
      </trkpt>
      <trkpt lat="47.80506" lon="6.52899">
        <ele>470.5</ele>
        <time>2023-04-10T07:58:23Z</time>
      </trkpt>
      <trkpt lat="47.80503" lon="6.52884">
        <ele>470.3</ele>
        <time>2023-04-10T07:58:29Z</time>
      </trkpt>
      <trkpt lat="47.80503" lon="6.52869">
        <ele>470</ele>
        <time>2023-04-10T07:58:35Z</time>
      </trkpt>
      <trkpt lat="47.805" lon="6.52854">
        <ele>469.7</ele>
        <time>2023-04-10T07:58:42Z</time>
      </trkpt>
      <trkpt lat="47.80499" lon="6.5284">
        <ele>469.4</ele>
        <time>2023-04-10T07:58:48Z</time>
      </trkpt>
      <trkpt lat="47.80498" lon="6.52826">
        <ele>469.2</ele>
        <time>2023-04-10T07:58:54Z</time>
      </trkpt>
      <trkpt lat="47.80497" lon="6.52813">
        <ele>469</ele>
        <time>2023-04-10T07:59:00Z</time>
      </trkpt>
      <trkpt lat="47.80493" lon="6.528">
        <ele>469</ele>
        <time>2023-04-10T07:59:07Z</time>
      </trkpt>
      <trkpt lat="47.80489" lon="6.52786">
        <ele>468.9</ele>
        <time>2023-04-10T07:59:15Z</time>
      </trkpt>
      <trkpt lat="47.80486" lon="6.52773">
        <ele>468.7</ele>
        <time>2023-04-10T07:59:22Z</time>
      </trkpt>
      <trkpt lat="47.80482" lon="6.5276">
        <ele>468.5</ele>
        <time>2023-04-10T07:59:30Z</time>
      </trkpt>
      <trkpt lat="47.80478" lon="6.52746">
        <ele>468.2</ele>
        <time>2023-04-10T07:59:38Z</time>
      </trkpt>
      <trkpt lat="47.80477" lon="6.52732">
        <ele>467.7</ele>
        <time>2023-04-10T07:59:45Z</time>
      </trkpt>
      <trkpt lat="47.80476" lon="6.52718">
        <ele>467.1</ele>
        <time>2023-04-10T07:59:53Z</time>
      </trkpt>
      <trkpt lat="47.80476" lon="6.52703">
        <ele>466.5</ele>
        <time>2023-04-10T08:00:02Z</time>
      </trkpt>
      <trkpt lat="47.80475" lon="6.52688">
        <ele>465.7</ele>
        <time>2023-04-10T08:00:08Z</time>
      </trkpt>
      <trkpt lat="47.80474" lon="6.52674">
        <ele>465.1</ele>
        <time>2023-04-10T08:00:16Z</time>
      </trkpt>
      <trkpt lat="47.80473" lon="6.5266">
        <ele>464.5</ele>
        <time>2023-04-10T08:00:23Z</time>
      </trkpt>
      <trkpt lat="47.80477" lon="6.52646">
        <ele>463.9</ele>
        <time>2023-04-10T08:00:30Z</time>
      </trkpt>
      <trkpt lat="47.80481" lon="6.52633">
        <ele>463.4</ele>
        <time>2023-04-10T08:00:37Z</time>
      </trkpt>
      <trkpt lat="47.80485" lon="6.52621">
        <ele>463</ele>
        <time>2023-04-10T08:00:45Z</time>
      </trkpt>
      <trkpt lat="47.80489" lon="6.52607">
        <ele>462.6</ele>
        <time>2023-04-10T08:00:53Z</time>
      </trkpt>
      <trkpt lat="47.80494" lon="6.52594">
        <ele>462.3</ele>
        <time>2023-04-10T08:01:01Z</time>
      </trkpt>
      <trkpt lat="47.80493" lon="6.5258">
        <ele>462</ele>
        <time>2023-04-10T08:01:08Z</time>
      </trkpt>
      <trkpt lat="47.80491" lon="6.52566">
        <ele>461.7</ele>
        <time>2023-04-10T08:01:15Z</time>
      </trkpt>
      <trkpt lat="47.80491" lon="6.52551">
        <ele>461.4</ele>
        <time>2023-04-10T08:01:22Z</time>
      </trkpt>
      <trkpt lat="47.80491" lon="6.52535">
        <ele>460.9</ele>
        <time>2023-04-10T08:01:30Z</time>
      </trkpt>
      <trkpt lat="47.80489" lon="6.52521">
        <ele>460.4</ele>
        <time>2023-04-10T08:01:38Z</time>
      </trkpt>
      <trkpt lat="47.80486" lon="6.52512">
        <ele>460</ele>
        <time>2023-04-10T08:01:47Z</time>
      </trkpt>
      <trkpt lat="47.80486" lon="6.52511">
        <ele>460</ele>
        <time>2023-04-10T08:01:48Z</time>
      </trkpt>
      <trkpt lat="47.80485" lon="6.52507">
        <ele>459.8</ele>
        <time>2023-04-10T08:01:54Z</time>
      </trkpt>
      <trkpt lat="47.80485" lon="6.52506">
        <ele>459.8</ele>
        <time>2023-04-10T08:02:00Z</time>
      </trkpt>
      <trkpt lat="47.80485" lon="6.52506">
        <ele>459.8</ele>
        <time>2023-04-10T08:02:01Z</time>
      </trkpt>
      <trkpt lat="47.80485" lon="6.52506">
        <ele>459.8</ele>
        <time>2023-04-10T08:02:09Z</time>
      </trkpt>
      <trkpt lat="47.80484" lon="6.52502">
        <ele>459.7</ele>
        <time>2023-04-10T08:02:14Z</time>
      </trkpt>
      <trkpt lat="47.80484" lon="6.52502">
        <ele>459.6</ele>
        <time>2023-04-10T08:03:09Z</time>
      </trkpt>
      <trkpt lat="47.80485" lon="6.52488">
        <ele>459.2</ele>
        <time>2023-04-10T08:03:25Z</time>
      </trkpt>
      <trkpt lat="47.80481" lon="6.52476">
        <ele>458.6</ele>
        <time>2023-04-10T08:03:33Z</time>
      </trkpt>
      <trkpt lat="47.80477" lon="6.52462">
        <ele>458.3</ele>
        <time>2023-04-10T08:03:41Z</time>
      </trkpt>
      <trkpt lat="47.80472" lon="6.52451">
        <ele>458.2</ele>
        <time>2023-04-10T08:03:48Z</time>
      </trkpt>
      <trkpt lat="47.80467" lon="6.52438">
        <ele>458.1</ele>
        <time>2023-04-10T08:03:55Z</time>
      </trkpt>
      <trkpt lat="47.80463" lon="6.52426">
        <ele>458</ele>
        <time>2023-04-10T08:04:02Z</time>
      </trkpt>
      <trkpt lat="47.80457" lon="6.52414">
        <ele>457.9</ele>
        <time>2023-04-10T08:04:10Z</time>
      </trkpt>
      <trkpt lat="47.80452" lon="6.52402">
        <ele>457.8</ele>
        <time>2023-04-10T08:04:18Z</time>
      </trkpt>
      <trkpt lat="47.80447" lon="6.52389">
        <ele>457.8</ele>
        <time>2023-04-10T08:04:25Z</time>
      </trkpt>
      <trkpt lat="47.80442" lon="6.52378">
        <ele>457.8</ele>
        <time>2023-04-10T08:04:32Z</time>
      </trkpt>
      <trkpt lat="47.80437" lon="6.52367">
        <ele>457.8</ele>
        <time>2023-04-10T08:04:39Z</time>
      </trkpt>
      <trkpt lat="47.80432" lon="6.52355">
        <ele>457.7</ele>
        <time>2023-04-10T08:04:47Z</time>
      </trkpt>
      <trkpt lat="47.80426" lon="6.52343">
        <ele>457.6</ele>
        <time>2023-04-10T08:04:55Z</time>
      </trkpt>
      <trkpt lat="47.80421" lon="6.52331">
        <ele>457.4</ele>
        <time>2023-04-10T08:05:03Z</time>
      </trkpt>
      <trkpt lat="47.80415" lon="6.5232">
        <ele>457.2</ele>
        <time>2023-04-10T08:05:11Z</time>
      </trkpt>
      <trkpt lat="47.8041" lon="6.52308">
        <ele>456.9</ele>
        <time>2023-04-10T08:05:19Z</time>
      </trkpt>
      <trkpt lat="47.80404" lon="6.52297">
        <ele>456.6</ele>
        <time>2023-04-10T08:05:26Z</time>
      </trkpt>
      <trkpt lat="47.80397" lon="6.52286">
        <ele>456.4</ele>
        <time>2023-04-10T08:05:34Z</time>
      </trkpt>
      <trkpt lat="47.80391" lon="6.52276">
        <ele>456.3</ele>
        <time>2023-04-10T08:05:41Z</time>
      </trkpt>
      <trkpt lat="47.80386" lon="6.52264">
        <ele>456.2</ele>
        <time>2023-04-10T08:05:48Z</time>
      </trkpt>
      <trkpt lat="47.8038" lon="6.52254">
        <ele>456.1</ele>
        <time>2023-04-10T08:05:56Z</time>
      </trkpt>
      <trkpt lat="47.80373" lon="6.52243">
        <ele>456.1</ele>
        <time>2023-04-10T08:06:05Z</time>
      </trkpt>
      <trkpt lat="47.80366" lon="6.52233">
        <ele>456.1</ele>
        <time>2023-04-10T08:06:17Z</time>
      </trkpt>
      <trkpt lat="47.8036" lon="6.52222">
        <ele>456</ele>
        <time>2023-04-10T08:06:25Z</time>
      </trkpt>
      <trkpt lat="47.80354" lon="6.5221">
        <ele>456.1</ele>
        <time>2023-04-10T08:06:33Z</time>
      </trkpt>
      <trkpt lat="47.80353" lon="6.52209">
        <ele>456.1</ele>
        <time>2023-04-10T08:06:37Z</time>
      </trkpt>
      <trkpt lat="47.80352" lon="6.52208">
        <ele>456.1</ele>
        <time>2023-04-10T08:06:38Z</time>
      </trkpt>
      <trkpt lat="47.80345" lon="6.52199">
        <ele>456.1</ele>
        <time>2023-04-10T08:06:45Z</time>
      </trkpt>
      <trkpt lat="47.80339" lon="6.52187">
        <ele>456.1</ele>
        <time>2023-04-10T08:06:51Z</time>
      </trkpt>
      <trkpt lat="47.80331" lon="6.52178">
        <ele>456.2</ele>
        <time>2023-04-10T08:06:58Z</time>
      </trkpt>
      <trkpt lat="47.80323" lon="6.5217">
        <ele>456.3</ele>
        <time>2023-04-10T08:07:05Z</time>
      </trkpt>
      <trkpt lat="47.80316" lon="6.5216">
        <ele>456.4</ele>
        <time>2023-04-10T08:07:12Z</time>
      </trkpt>
      <trkpt lat="47.80309" lon="6.5215">
        <ele>456.6</ele>
        <time>2023-04-10T08:07:19Z</time>
      </trkpt>
      <trkpt lat="47.80301" lon="6.5214">
        <ele>456.8</ele>
        <time>2023-04-10T08:07:26Z</time>
      </trkpt>
      <trkpt lat="47.80293" lon="6.52131">
        <ele>456.9</ele>
        <time>2023-04-10T08:07:33Z</time>
      </trkpt>
      <trkpt lat="47.80284" lon="6.52125">
        <ele>457</ele>
        <time>2023-04-10T08:07:40Z</time>
      </trkpt>
      <trkpt lat="47.80276" lon="6.52116">
        <ele>457.1</ele>
        <time>2023-04-10T08:07:48Z</time>
      </trkpt>
      <trkpt lat="47.80269" lon="6.52107">
        <ele>457.3</ele>
        <time>2023-04-10T08:07:55Z</time>
      </trkpt>
      <trkpt lat="47.80262" lon="6.52098">
        <ele>457.4</ele>
        <time>2023-04-10T08:08:02Z</time>
      </trkpt>
      <trkpt lat="47.80254" lon="6.52091">
        <ele>457.5</ele>
        <time>2023-04-10T08:08:08Z</time>
      </trkpt>
      <trkpt lat="47.80247" lon="6.5208">
        <ele>457.6</ele>
        <time>2023-04-10T08:08:15Z</time>
      </trkpt>
      <trkpt lat="47.80243" lon="6.52068">
        <ele>457.8</ele>
        <time>2023-04-10T08:08:21Z</time>
      </trkpt>
      <trkpt lat="47.80237" lon="6.52055">
        <ele>458</ele>
        <time>2023-04-10T08:08:29Z</time>
      </trkpt>
      <trkpt lat="47.80232" lon="6.52043">
        <ele>458.3</ele>
        <time>2023-04-10T08:08:35Z</time>
      </trkpt>
      <trkpt lat="47.80226" lon="6.52031">
        <ele>458.7</ele>
        <time>2023-04-10T08:08:43Z</time>
      </trkpt>
      <trkpt lat="47.8022" lon="6.52019">
        <ele>459.1</ele>
        <time>2023-04-10T08:08:52Z</time>
      </trkpt>
      <trkpt lat="47.80216" lon="6.52006">
        <ele>459.5</ele>
        <time>2023-04-10T08:09:00Z</time>
      </trkpt>
      <trkpt lat="47.80211" lon="6.51993">
        <ele>459.8</ele>
        <time>2023-04-10T08:09:09Z</time>
      </trkpt>
      <trkpt lat="47.80207" lon="6.5198">
        <ele>460.1</ele>
        <time>2023-04-10T08:09:16Z</time>
      </trkpt>
      <trkpt lat="47.80199" lon="6.51971">
        <ele>460.3</ele>
        <time>2023-04-10T08:09:25Z</time>
      </trkpt>
      <trkpt lat="47.80193" lon="6.51961">
        <ele>460.4</ele>
        <time>2023-04-10T08:09:32Z</time>
      </trkpt>
      <trkpt lat="47.80187" lon="6.51953">
        <ele>460.6</ele>
        <time>2023-04-10T08:09:40Z</time>
      </trkpt>
      <trkpt lat="47.80187" lon="6.51952">
        <ele>460.6</ele>
        <time>2023-04-10T08:09:41Z</time>
      </trkpt>
      <trkpt lat="47.8018" lon="6.51942">
        <ele>460.7</ele>
        <time>2023-04-10T08:09:49Z</time>
      </trkpt>
      <trkpt lat="47.80171" lon="6.51934">
        <ele>460.9</ele>
        <time>2023-04-10T08:09:56Z</time>
      </trkpt>
      <trkpt lat="47.80163" lon="6.51927">
        <ele>461</ele>
        <time>2023-04-10T08:10:04Z</time>
      </trkpt>
      <trkpt lat="47.80155" lon="6.51922">
        <ele>461.2</ele>
        <time>2023-04-10T08:10:09Z</time>
      </trkpt>
      <trkpt lat="47.80147" lon="6.51912">
        <ele>461.3</ele>
        <time>2023-04-10T08:10:15Z</time>
      </trkpt>
      <trkpt lat="47.80139" lon="6.51905">
        <ele>461.5</ele>
        <time>2023-04-10T08:10:21Z</time>
      </trkpt>
      <trkpt lat="47.80131" lon="6.51899">
        <ele>461.6</ele>
        <time>2023-04-10T08:10:28Z</time>
      </trkpt>
      <trkpt lat="47.80124" lon="6.51889">
        <ele>461.7</ele>
        <time>2023-04-10T08:10:36Z</time>
      </trkpt>
      <trkpt lat="47.80114" lon="6.51883">
        <ele>461.8</ele>
        <time>2023-04-10T08:10:44Z</time>
      </trkpt>
      <trkpt lat="47.80103" lon="6.51878">
        <ele>461.8</ele>
        <time>2023-04-10T08:10:53Z</time>
      </trkpt>
      <trkpt lat="47.80094" lon="6.51873">
        <ele>461.9</ele>
        <time>2023-04-10T08:11:01Z</time>
      </trkpt>
      <trkpt lat="47.80086" lon="6.51865">
        <ele>461.8</ele>
        <time>2023-04-10T08:11:09Z</time>
      </trkpt>
      <trkpt lat="47.80076" lon="6.51862">
        <ele>461.9</ele>
        <time>2023-04-10T08:11:18Z</time>
      </trkpt>
      <trkpt lat="47.80067" lon="6.51859">
        <ele>462</ele>
        <time>2023-04-10T08:11:25Z</time>
      </trkpt>
      <trkpt lat="47.80058" lon="6.51856">
        <ele>462.1</ele>
        <time>2023-04-10T08:11:32Z</time>
      </trkpt>
      <trkpt lat="47.80049" lon="6.51853">
        <ele>462.2</ele>
        <time>2023-04-10T08:11:38Z</time>
      </trkpt>
      <trkpt lat="47.80039" lon="6.5185">
        <ele>462.3</ele>
        <time>2023-04-10T08:11:45Z</time>
      </trkpt>
      <trkpt lat="47.8003" lon="6.51845">
        <ele>462.5</ele>
        <time>2023-04-10T08:11:53Z</time>
      </trkpt>
      <trkpt lat="47.8002" lon="6.51843">
        <ele>462.6</ele>
        <time>2023-04-10T08:12:04Z</time>
      </trkpt>
      <trkpt lat="47.8001" lon="6.51842">
        <ele>462.8</ele>
        <time>2023-04-10T08:12:10Z</time>
      </trkpt>
      <trkpt lat="47.80001" lon="6.51839">
        <ele>462.9</ele>
        <time>2023-04-10T08:12:17Z</time>
      </trkpt>
      <trkpt lat="47.79992" lon="6.51836">
        <ele>463.1</ele>
        <time>2023-04-10T08:12:23Z</time>
      </trkpt>
      <trkpt lat="47.79982" lon="6.51833">
        <ele>463.2</ele>
        <time>2023-04-10T08:12:31Z</time>
      </trkpt>
      <trkpt lat="47.79973" lon="6.51831">
        <ele>463.5</ele>
        <time>2023-04-10T08:12:37Z</time>
      </trkpt>
      <trkpt lat="47.79964" lon="6.51829">
        <ele>463.9</ele>
        <time>2023-04-10T08:12:42Z</time>
      </trkpt>
      <trkpt lat="47.79954" lon="6.51825">
        <ele>464.1</ele>
        <time>2023-04-10T08:12:48Z</time>
      </trkpt>
      <trkpt lat="47.79945" lon="6.51818">
        <ele>464</ele>
        <time>2023-04-10T08:12:55Z</time>
      </trkpt>
      <trkpt lat="47.79938" lon="6.51809">
        <ele>463.8</ele>
        <time>2023-04-10T08:13:02Z</time>
      </trkpt>
      <trkpt lat="47.79934" lon="6.51796">
        <ele>463.5</ele>
        <time>2023-04-10T08:13:10Z</time>
      </trkpt>
      <trkpt lat="47.79931" lon="6.51781">
        <ele>463.2</ele>
        <time>2023-04-10T08:13:18Z</time>
      </trkpt>
      <trkpt lat="47.79931" lon="6.51766">
        <ele>463</ele>
        <time>2023-04-10T08:13:23Z</time>
      </trkpt>
      <trkpt lat="47.79928" lon="6.51753">
        <ele>462.9</ele>
        <time>2023-04-10T08:13:32Z</time>
      </trkpt>
      <trkpt lat="47.79927" lon="6.51738">
        <ele>462.8</ele>
        <time>2023-04-10T08:13:42Z</time>
      </trkpt>
      <trkpt lat="47.79926" lon="6.51724">
        <ele>462.8</ele>
        <time>2023-04-10T08:13:50Z</time>
      </trkpt>
      <trkpt lat="47.79924" lon="6.51709">
        <ele>462.8</ele>
        <time>2023-04-10T08:13:59Z</time>
      </trkpt>
      <trkpt lat="47.79921" lon="6.51696">
        <ele>462.8</ele>
        <time>2023-04-10T08:14:07Z</time>
      </trkpt>
      <trkpt lat="47.79918" lon="6.51683">
        <ele>462.9</ele>
        <time>2023-04-10T08:14:10Z</time>
      </trkpt>
      <trkpt lat="47.79918" lon="6.51683">
        <ele>462.9</ele>
        <time>2023-04-10T08:14:11Z</time>
      </trkpt>
      <trkpt lat="47.79918" lon="6.51683">
        <ele>462.9</ele>
        <time>2023-04-10T08:14:14Z</time>
      </trkpt>
      <trkpt lat="47.79917" lon="6.51682">
        <ele>462.9</ele>
        <time>2023-04-10T08:14:16Z</time>
      </trkpt>
      <trkpt lat="47.79917" lon="6.51681">
        <ele>462.9</ele>
        <time>2023-04-10T08:14:18Z</time>
      </trkpt>
      <trkpt lat="47.79914" lon="6.51668">
        <ele>462.9</ele>
        <time>2023-04-10T08:14:27Z</time>
      </trkpt>
      <trkpt lat="47.79914" lon="6.51654">
        <ele>462.8</ele>
        <time>2023-04-10T08:14:36Z</time>
      </trkpt>
      <trkpt lat="47.79913" lon="6.5164">
        <ele>462.7</ele>
        <time>2023-04-10T08:14:44Z</time>
      </trkpt>
      <trkpt lat="47.79911" lon="6.51626">
        <ele>462.3</ele>
        <time>2023-04-10T08:14:52Z</time>
      </trkpt>
      <trkpt lat="47.79909" lon="6.51611">
        <ele>461.8</ele>
        <time>2023-04-10T08:15:00Z</time>
      </trkpt>
      <trkpt lat="47.79908" lon="6.51597">
        <ele>461.1</ele>
        <time>2023-04-10T08:15:07Z</time>
      </trkpt>
      <trkpt lat="47.79907" lon="6.51582">
        <ele>460.4</ele>
        <time>2023-04-10T08:15:15Z</time>
      </trkpt>
      <trkpt lat="47.79909" lon="6.51568">
        <ele>459.7</ele>
        <time>2023-04-10T08:15:21Z</time>
      </trkpt>
      <trkpt lat="47.79913" lon="6.51554">
        <ele>459.1</ele>
        <time>2023-04-10T08:15:28Z</time>
      </trkpt>
      <trkpt lat="47.79917" lon="6.51541">
        <ele>458.6</ele>
        <time>2023-04-10T08:15:35Z</time>
      </trkpt>
      <trkpt lat="47.79921" lon="6.51529">
        <ele>458.1</ele>
        <time>2023-04-10T08:15:42Z</time>
      </trkpt>
      <trkpt lat="47.79925" lon="6.51516">
        <ele>457.7</ele>
        <time>2023-04-10T08:15:48Z</time>
      </trkpt>
      <trkpt lat="47.79931" lon="6.51504">
        <ele>457.2</ele>
        <time>2023-04-10T08:15:55Z</time>
      </trkpt>
      <trkpt lat="47.79938" lon="6.51493">
        <ele>456.6</ele>
        <time>2023-04-10T08:16:03Z</time>
      </trkpt>
      <trkpt lat="47.79944" lon="6.51483">
        <ele>456.1</ele>
        <time>2023-04-10T08:16:10Z</time>
      </trkpt>
      <trkpt lat="47.79952" lon="6.51472">
        <ele>455.5</ele>
        <time>2023-04-10T08:16:17Z</time>
      </trkpt>
      <trkpt lat="47.79959" lon="6.51463">
        <ele>454.9</ele>
        <time>2023-04-10T08:16:25Z</time>
      </trkpt>
      <trkpt lat="47.79966" lon="6.51455">
        <ele>454.2</ele>
        <time>2023-04-10T08:16:33Z</time>
      </trkpt>
      <trkpt lat="47.79975" lon="6.51448">
        <ele>453.4</ele>
        <time>2023-04-10T08:16:40Z</time>
      </trkpt>
      <trkpt lat="47.79983" lon="6.51442">
        <ele>452.8</ele>
        <time>2023-04-10T08:16:47Z</time>
      </trkpt>
      <trkpt lat="47.79992" lon="6.51436">
        <ele>452.3</ele>
        <time>2023-04-10T08:16:53Z</time>
      </trkpt>
      <trkpt lat="47.80001" lon="6.5143">
        <ele>451.9</ele>
        <time>2023-04-10T08:17:00Z</time>
      </trkpt>
      <trkpt lat="47.80009" lon="6.51424">
        <ele>451.6</ele>
        <time>2023-04-10T08:17:07Z</time>
      </trkpt>
      <trkpt lat="47.80017" lon="6.51417">
        <ele>451.5</ele>
        <time>2023-04-10T08:17:14Z</time>
      </trkpt>
      <trkpt lat="47.80025" lon="6.51408">
        <ele>451.3</ele>
        <time>2023-04-10T08:17:21Z</time>
      </trkpt>
      <trkpt lat="47.80033" lon="6.51398">
        <ele>451.3</ele>
        <time>2023-04-10T08:17:29Z</time>
      </trkpt>
      <trkpt lat="47.8004" lon="6.51388">
        <ele>451.3</ele>
        <time>2023-04-10T08:17:37Z</time>
      </trkpt>
      <trkpt lat="47.80048" lon="6.51378">
        <ele>451.3</ele>
        <time>2023-04-10T08:17:44Z</time>
      </trkpt>
      <trkpt lat="47.80055" lon="6.51368">
        <ele>451.4</ele>
        <time>2023-04-10T08:17:51Z</time>
      </trkpt>
      <trkpt lat="47.80061" lon="6.51359">
        <ele>451.5</ele>
        <time>2023-04-10T08:17:58Z</time>
      </trkpt>
      <trkpt lat="47.80068" lon="6.5135">
        <ele>451.5</ele>
        <time>2023-04-10T08:18:05Z</time>
      </trkpt>
      <trkpt lat="47.80075" lon="6.51339">
        <ele>451.4</ele>
        <time>2023-04-10T08:18:12Z</time>
      </trkpt>
      <trkpt lat="47.80083" lon="6.5133">
        <ele>451.1</ele>
        <time>2023-04-10T08:18:20Z</time>
      </trkpt>
      <trkpt lat="47.80092" lon="6.51323">
        <ele>450.8</ele>
        <time>2023-04-10T08:18:27Z</time>
      </trkpt>
      <trkpt lat="47.801" lon="6.51317">
        <ele>450.5</ele>
        <time>2023-04-10T08:18:34Z</time>
      </trkpt>
      <trkpt lat="47.80109" lon="6.51313">
        <ele>450.1</ele>
        <time>2023-04-10T08:18:41Z</time>
      </trkpt>
      <trkpt lat="47.80119" lon="6.51311">
        <ele>449.5</ele>
        <time>2023-04-10T08:18:47Z</time>
      </trkpt>
      <trkpt lat="47.80128" lon="6.51308">
        <ele>448.8</ele>
        <time>2023-04-10T08:18:54Z</time>
      </trkpt>
      <trkpt lat="47.80138" lon="6.51308">
        <ele>448.1</ele>
        <time>2023-04-10T08:19:04Z</time>
      </trkpt>
      <trkpt lat="47.80148" lon="6.51308">
        <ele>447.2</ele>
        <time>2023-04-10T08:19:12Z</time>
      </trkpt>
      <trkpt lat="47.80157" lon="6.5131">
        <ele>446.5</ele>
        <time>2023-04-10T08:19:18Z</time>
      </trkpt>
      <trkpt lat="47.80167" lon="6.51314">
        <ele>446</ele>
        <time>2023-04-10T08:19:25Z</time>
      </trkpt>
      <trkpt lat="47.80176" lon="6.51314">
        <ele>445.6</ele>
        <time>2023-04-10T08:19:32Z</time>
      </trkpt>
      <trkpt lat="47.80187" lon="6.51315">
        <ele>445.2</ele>
        <time>2023-04-10T08:19:38Z</time>
      </trkpt>
      <trkpt lat="47.80197" lon="6.51317">
        <ele>444.8</ele>
        <time>2023-04-10T08:19:44Z</time>
      </trkpt>
      <trkpt lat="47.80206" lon="6.51319">
        <ele>444.5</ele>
        <time>2023-04-10T08:19:51Z</time>
      </trkpt>
      <trkpt lat="47.80216" lon="6.51322">
        <ele>444.1</ele>
        <time>2023-04-10T08:19:58Z</time>
      </trkpt>
      <trkpt lat="47.80224" lon="6.51326">
        <ele>443.7</ele>
        <time>2023-04-10T08:20:05Z</time>
      </trkpt>
      <trkpt lat="47.80234" lon="6.51329">
        <ele>443.4</ele>
        <time>2023-04-10T08:20:13Z</time>
      </trkpt>
      <trkpt lat="47.80243" lon="6.5133">
        <ele>443.2</ele>
        <time>2023-04-10T08:20:21Z</time>
      </trkpt>
      <trkpt lat="47.80253" lon="6.51331">
        <ele>443.1</ele>
        <time>2023-04-10T08:20:27Z</time>
      </trkpt>
      <trkpt lat="47.80262" lon="6.5133">
        <ele>442.9</ele>
        <time>2023-04-10T08:20:33Z</time>
      </trkpt>
      <trkpt lat="47.80271" lon="6.51327">
        <ele>442.5</ele>
        <time>2023-04-10T08:20:40Z</time>
      </trkpt>
      <trkpt lat="47.8028" lon="6.51324">
        <ele>441.8</ele>
        <time>2023-04-10T08:20:48Z</time>
      </trkpt>
      <trkpt lat="47.80289" lon="6.51318">
        <ele>441</ele>
        <time>2023-04-10T08:20:56Z</time>
      </trkpt>
      <trkpt lat="47.80299" lon="6.51317">
        <ele>440.2</ele>
        <time>2023-04-10T08:21:04Z</time>
      </trkpt>
      <trkpt lat="47.80308" lon="6.51317">
        <ele>437.6</ele>
        <time>2023-04-10T08:21:12Z</time>
      </trkpt>
      <trkpt lat="47.80302" lon="6.51307">
        <ele>437.1</ele>
        <time>2023-04-10T08:21:31Z</time>
      </trkpt>
      <trkpt lat="47.803" lon="6.51301">
        <ele>436.9</ele>
        <time>2023-04-10T08:21:36Z</time>
      </trkpt>
      <trkpt lat="47.80299" lon="6.513">
        <ele>436.8</ele>
        <time>2023-04-10T08:21:37Z</time>
      </trkpt>
      <trkpt lat="47.80292" lon="6.51292">
        <ele>436.4</ele>
        <time>2023-04-10T08:21:43Z</time>
      </trkpt>
      <trkpt lat="47.80283" lon="6.51283">
        <ele>436</ele>
        <time>2023-04-10T08:21:48Z</time>
      </trkpt>
      <trkpt lat="47.80275" lon="6.51275">
        <ele>435.6</ele>
        <time>2023-04-10T08:21:53Z</time>
      </trkpt>
      <trkpt lat="47.80266" lon="6.51268">
        <ele>435.3</ele>
        <time>2023-04-10T08:21:59Z</time>
      </trkpt>
      <trkpt lat="47.80258" lon="6.51262">
        <ele>435.1</ele>
        <time>2023-04-10T08:22:06Z</time>
      </trkpt>
      <trkpt lat="47.80249" lon="6.51257">
        <ele>435</ele>
        <time>2023-04-10T08:22:12Z</time>
      </trkpt>
      <trkpt lat="47.8024" lon="6.51254">
        <ele>434.9</ele>
        <time>2023-04-10T08:22:19Z</time>
      </trkpt>
      <trkpt lat="47.80231" lon="6.51252">
        <ele>434.9</ele>
        <time>2023-04-10T08:22:32Z</time>
      </trkpt>
      <trkpt lat="47.80227" lon="6.51249">
        <ele>434.9</ele>
        <time>2023-04-10T08:22:37Z</time>
      </trkpt>
      <trkpt lat="47.80227" lon="6.51249">
        <ele>434.8</ele>
        <time>2023-04-10T08:22:38Z</time>
      </trkpt>
      <trkpt lat="47.8022" lon="6.51239">
        <ele>434.6</ele>
        <time>2023-04-10T08:22:52Z</time>
      </trkpt>
      <trkpt lat="47.8021" lon="6.51234">
        <ele>434.1</ele>
        <time>2023-04-10T08:22:59Z</time>
      </trkpt>
      <trkpt lat="47.80201" lon="6.51232">
        <ele>433.4</ele>
        <time>2023-04-10T08:23:07Z</time>
      </trkpt>
      <trkpt lat="47.80192" lon="6.5123">
        <ele>432.5</ele>
        <time>2023-04-10T08:23:13Z</time>
      </trkpt>
      <trkpt lat="47.80182" lon="6.51226">
        <ele>431.6</ele>
        <time>2023-04-10T08:23:19Z</time>
      </trkpt>
      <trkpt lat="47.80173" lon="6.51222">
        <ele>431</ele>
        <time>2023-04-10T08:23:26Z</time>
      </trkpt>
      <trkpt lat="47.80164" lon="6.51216">
        <ele>430.6</ele>
        <time>2023-04-10T08:23:31Z</time>
      </trkpt>
      <trkpt lat="47.80157" lon="6.51207">
        <ele>430.3</ele>
        <time>2023-04-10T08:23:44Z</time>
      </trkpt>
      <trkpt lat="47.80149" lon="6.512">
        <ele>430.2</ele>
        <time>2023-04-10T08:23:53Z</time>
      </trkpt>
      <trkpt lat="47.80138" lon="6.51201">
        <ele>430</ele>
        <time>2023-04-10T08:24:02Z</time>
      </trkpt>
      <trkpt lat="47.8013" lon="6.51197">
        <ele>429.5</ele>
        <time>2023-04-10T08:24:07Z</time>
      </trkpt>
      <trkpt lat="47.80119" lon="6.51192">
        <ele>429</ele>
        <time>2023-04-10T08:24:12Z</time>
      </trkpt>
      <trkpt lat="47.8011" lon="6.51187">
        <ele>428.7</ele>
        <time>2023-04-10T08:24:18Z</time>
      </trkpt>
      <trkpt lat="47.80099" lon="6.51184">
        <ele>428.4</ele>
        <time>2023-04-10T08:24:24Z</time>
      </trkpt>
      <trkpt lat="47.8009" lon="6.51178">
        <ele>428</ele>
        <time>2023-04-10T08:24:29Z</time>
      </trkpt>
      <trkpt lat="47.80081" lon="6.51174">
        <ele>427.6</ele>
        <time>2023-04-10T08:24:36Z</time>
      </trkpt>
      <trkpt lat="47.8007" lon="6.51174">
        <ele>427.2</ele>
        <time>2023-04-10T08:24:41Z</time>
      </trkpt>
      <trkpt lat="47.80062" lon="6.51165">
        <ele>426.7</ele>
        <time>2023-04-10T08:24:52Z</time>
      </trkpt>
      <trkpt lat="47.80052" lon="6.51162">
        <ele>426.1</ele>
        <time>2023-04-10T08:25:01Z</time>
      </trkpt>
      <trkpt lat="47.80045" lon="6.51153">
        <ele>425.5</ele>
        <time>2023-04-10T08:25:10Z</time>
      </trkpt>
      <trkpt lat="47.80035" lon="6.51152">
        <ele>425</ele>
        <time>2023-04-10T08:25:16Z</time>
      </trkpt>
      <trkpt lat="47.80026" lon="6.51149">
        <ele>424.5</ele>
        <time>2023-04-10T08:25:23Z</time>
      </trkpt>
      <trkpt lat="47.80017" lon="6.51149">
        <ele>424</ele>
        <time>2023-04-10T08:25:29Z</time>
      </trkpt>
      <trkpt lat="47.80007" lon="6.51148">
        <ele>423.6</ele>
        <time>2023-04-10T08:25:34Z</time>
      </trkpt>
      <trkpt lat="47.79998" lon="6.5115">
        <ele>423.2</ele>
        <time>2023-04-10T08:25:41Z</time>
      </trkpt>
      <trkpt lat="47.79988" lon="6.51154">
        <ele>422.9</ele>
        <time>2023-04-10T08:25:45Z</time>
      </trkpt>
      <trkpt lat="47.79976" lon="6.51157">
        <ele>422.5</ele>
        <time>2023-04-10T08:25:50Z</time>
      </trkpt>
      <trkpt lat="47.79968" lon="6.51164">
        <ele>422.4</ele>
        <time>2023-04-10T08:25:56Z</time>
      </trkpt>
      <trkpt lat="47.79961" lon="6.51174">
        <ele>422.5</ele>
        <time>2023-04-10T08:26:03Z</time>
      </trkpt>
      <trkpt lat="47.79953" lon="6.51182">
        <ele>422.7</ele>
        <time>2023-04-10T08:26:11Z</time>
      </trkpt>
      <trkpt lat="47.79945" lon="6.5119">
        <ele>423.1</ele>
        <time>2023-04-10T08:26:19Z</time>
      </trkpt>
      <trkpt lat="47.79938" lon="6.512">
        <ele>423.4</ele>
        <time>2023-04-10T08:26:28Z</time>
      </trkpt>
      <trkpt lat="47.79929" lon="6.51207">
        <ele>423.6</ele>
        <time>2023-04-10T08:26:36Z</time>
      </trkpt>
      <trkpt lat="47.7992" lon="6.51215">
        <ele>423.8</ele>
        <time>2023-04-10T08:26:41Z</time>
      </trkpt>
      <trkpt lat="47.79912" lon="6.51222">
        <ele>424</ele>
        <time>2023-04-10T08:26:48Z</time>
      </trkpt>
      <trkpt lat="47.79903" lon="6.51229">
        <ele>424.2</ele>
        <time>2023-04-10T08:26:52Z</time>
      </trkpt>
      <trkpt lat="47.79895" lon="6.51238">
        <ele>424.3</ele>
        <time>2023-04-10T08:26:59Z</time>
      </trkpt>
      <trkpt lat="47.79887" lon="6.51247">
        <ele>424.3</ele>
        <time>2023-04-10T08:27:06Z</time>
      </trkpt>
      <trkpt lat="47.79881" lon="6.51259">
        <ele>424.3</ele>
        <time>2023-04-10T08:27:14Z</time>
      </trkpt>
      <trkpt lat="47.79881" lon="6.51259">
        <ele>424.3</ele>
        <time>2023-04-10T08:27:15Z</time>
      </trkpt>
      <trkpt lat="47.79881" lon="6.51259">
        <ele>424.3</ele>
        <time>2023-04-10T08:27:18Z</time>
      </trkpt>
      <trkpt lat="47.79872" lon="6.51268">
        <ele>424.3</ele>
        <time>2023-04-10T08:27:28Z</time>
      </trkpt>
      <trkpt lat="47.79866" lon="6.51277">
        <ele>424.3</ele>
        <time>2023-04-10T08:27:36Z</time>
      </trkpt>
      <trkpt lat="47.79861" lon="6.5129">
        <ele>424.3</ele>
        <time>2023-04-10T08:27:44Z</time>
      </trkpt>
      <trkpt lat="47.79855" lon="6.51302">
        <ele>424.3</ele>
        <time>2023-04-10T08:27:52Z</time>
      </trkpt>
      <trkpt lat="47.7985" lon="6.51313">
        <ele>424.3</ele>
        <time>2023-04-10T08:28:01Z</time>
      </trkpt>
      <trkpt lat="47.79841" lon="6.5132">
        <ele>424.3</ele>
        <time>2023-04-10T08:28:08Z</time>
      </trkpt>
      <trkpt lat="47.79831" lon="6.51328">
        <ele>424.3</ele>
        <time>2023-04-10T08:28:16Z</time>
      </trkpt>
      <trkpt lat="47.79823" lon="6.51332">
        <ele>424.1</ele>
        <time>2023-04-10T08:28:27Z</time>
      </trkpt>
      <trkpt lat="47.79812" lon="6.51335">
        <ele>424</ele>
        <time>2023-04-10T08:28:36Z</time>
      </trkpt>
      <trkpt lat="47.79802" lon="6.51338">
        <ele>423.9</ele>
        <time>2023-04-10T08:28:41Z</time>
      </trkpt>
      <trkpt lat="47.79793" lon="6.51339">
        <ele>423.8</ele>
        <time>2023-04-10T08:28:49Z</time>
      </trkpt>
      <trkpt lat="47.79784" lon="6.51342">
        <ele>423.8</ele>
        <time>2023-04-10T08:28:56Z</time>
      </trkpt>
      <trkpt lat="47.79776" lon="6.51348">
        <ele>423.9</ele>
        <time>2023-04-10T08:29:05Z</time>
      </trkpt>
      <trkpt lat="47.79766" lon="6.51352">
        <ele>423.7</ele>
        <time>2023-04-10T08:29:11Z</time>
      </trkpt>
      <trkpt lat="47.79755" lon="6.51353">
        <ele>423.3</ele>
        <time>2023-04-10T08:29:18Z</time>
      </trkpt>
      <trkpt lat="47.79745" lon="6.51355">
        <ele>422.9</ele>
        <time>2023-04-10T08:29:22Z</time>
      </trkpt>
      <trkpt lat="47.79734" lon="6.5136">
        <ele>421.8</ele>
        <time>2023-04-10T08:29:27Z</time>
      </trkpt>
      <trkpt lat="47.79728" lon="6.51371">
        <ele>421.1</ele>
        <time>2023-04-10T08:29:33Z</time>
      </trkpt>
      <trkpt lat="47.79723" lon="6.51384">
        <ele>420.4</ele>
        <time>2023-04-10T08:29:41Z</time>
      </trkpt>
      <trkpt lat="47.79724" lon="6.51397">
        <ele>419.8</ele>
        <time>2023-04-10T08:29:48Z</time>
      </trkpt>
      <trkpt lat="47.79719" lon="6.51409">
        <ele>419.2</ele>
        <time>2023-04-10T08:29:54Z</time>
      </trkpt>
      <trkpt lat="47.79714" lon="6.51421">
        <ele>418.6</ele>
        <time>2023-04-10T08:30:01Z</time>
      </trkpt>
      <trkpt lat="47.79712" lon="6.51435">
        <ele>418</ele>
        <time>2023-04-10T08:30:10Z</time>
      </trkpt>
      <trkpt lat="47.79705" lon="6.51445">
        <ele>417.4</ele>
        <time>2023-04-10T08:30:17Z</time>
      </trkpt>
      <trkpt lat="47.797" lon="6.51459">
        <ele>416.7</ele>
        <time>2023-04-10T08:30:24Z</time>
      </trkpt>
      <trkpt lat="47.79695" lon="6.5147">
        <ele>416.1</ele>
        <time>2023-04-10T08:30:30Z</time>
      </trkpt>
      <trkpt lat="47.7969" lon="6.51482">
        <ele>415.5</ele>
        <time>2023-04-10T08:30:37Z</time>
      </trkpt>
      <trkpt lat="47.79682" lon="6.51488">
        <ele>415</ele>
        <time>2023-04-10T08:30:44Z</time>
      </trkpt>
      <trkpt lat="47.79673" lon="6.51494">
        <ele>414.5</ele>
        <time>2023-04-10T08:30:56Z</time>
      </trkpt>
      <trkpt lat="47.79664" lon="6.51498">
        <ele>414</ele>
        <time>2023-04-10T08:31:02Z</time>
      </trkpt>
      <trkpt lat="47.79655" lon="6.51498">
        <ele>413.5</ele>
        <time>2023-04-10T08:31:12Z</time>
      </trkpt>
      <trkpt lat="47.79644" lon="6.51496">
        <ele>412.8</ele>
        <time>2023-04-10T08:31:18Z</time>
      </trkpt>
      <trkpt lat="47.79635" lon="6.51492">
        <ele>412.2</ele>
        <time>2023-04-10T08:31:24Z</time>
      </trkpt>
      <trkpt lat="47.79627" lon="6.51483">
        <ele>411.4</ele>
        <time>2023-04-10T08:31:30Z</time>
      </trkpt>
      <trkpt lat="47.79618" lon="6.51479">
        <ele>410.7</ele>
        <time>2023-04-10T08:31:36Z</time>
      </trkpt>
      <trkpt lat="47.79609" lon="6.51476">
        <ele>409.9</ele>
        <time>2023-04-10T08:31:45Z</time>
      </trkpt>
      <trkpt lat="47.79599" lon="6.51473">
        <ele>409.1</ele>
        <time>2023-04-10T08:31:56Z</time>
      </trkpt>
      <trkpt lat="47.7959" lon="6.51477">
        <ele>408.4</ele>
        <time>2023-04-10T08:32:04Z</time>
      </trkpt>
      <trkpt lat="47.7958" lon="6.51479">
        <ele>407.6</ele>
        <time>2023-04-10T08:32:09Z</time>
      </trkpt>
      <trkpt lat="47.7957" lon="6.51481">
        <ele>407</ele>
        <time>2023-04-10T08:32:14Z</time>
      </trkpt>
      <trkpt lat="47.7956" lon="6.51478">
        <ele>406.4</ele>
        <time>2023-04-10T08:32:20Z</time>
      </trkpt>
      <trkpt lat="47.79551" lon="6.51472">
        <ele>405.9</ele>
        <time>2023-04-10T08:32:26Z</time>
      </trkpt>
      <trkpt lat="47.79544" lon="6.51464">
        <ele>405.5</ele>
        <time>2023-04-10T08:32:32Z</time>
      </trkpt>
      <trkpt lat="47.79536" lon="6.51457">
        <ele>405.2</ele>
        <time>2023-04-10T08:32:40Z</time>
      </trkpt>
      <trkpt lat="47.79527" lon="6.5145">
        <ele>404.9</ele>
        <time>2023-04-10T08:32:49Z</time>
      </trkpt>
      <trkpt lat="47.79518" lon="6.51445">
        <ele>404.5</ele>
        <time>2023-04-10T08:32:55Z</time>
      </trkpt>
      <trkpt lat="47.79512" lon="6.51436">
        <ele>404.2</ele>
        <time>2023-04-10T08:33:00Z</time>
      </trkpt>
      <trkpt lat="47.79507" lon="6.51424">
        <ele>404.1</ele>
        <time>2023-04-10T08:33:06Z</time>
      </trkpt>
      <trkpt lat="47.79504" lon="6.51411">
        <ele>404</ele>
        <time>2023-04-10T08:33:14Z</time>
      </trkpt>
      <trkpt lat="47.79501" lon="6.51397">
        <ele>403.9</ele>
        <time>2023-04-10T08:33:21Z</time>
      </trkpt>
      <trkpt lat="47.79498" lon="6.51383">
        <ele>403.7</ele>
        <time>2023-04-10T08:33:28Z</time>
      </trkpt>
      <trkpt lat="47.79496" lon="6.51368">
        <ele>403.6</ele>
        <time>2023-04-10T08:33:35Z</time>
      </trkpt>
      <trkpt lat="47.79494" lon="6.51355">
        <ele>403.6</ele>
        <time>2023-04-10T08:33:41Z</time>
      </trkpt>
      <trkpt lat="47.79492" lon="6.5134">
        <ele>403.6</ele>
        <time>2023-04-10T08:33:48Z</time>
      </trkpt>
      <trkpt lat="47.79489" lon="6.51327">
        <ele>403.6</ele>
        <time>2023-04-10T08:33:55Z</time>
      </trkpt>
      <trkpt lat="47.79487" lon="6.51313">
        <ele>403.7</ele>
        <time>2023-04-10T08:34:02Z</time>
      </trkpt>
      <trkpt lat="47.79485" lon="6.51299">
        <ele>403.8</ele>
        <time>2023-04-10T08:34:09Z</time>
      </trkpt>
      <trkpt lat="47.79482" lon="6.51286">
        <ele>404.1</ele>
        <time>2023-04-10T08:34:16Z</time>
      </trkpt>
      <trkpt lat="47.7948" lon="6.51272">
        <ele>404.3</ele>
        <time>2023-04-10T08:34:23Z</time>
      </trkpt>
      <trkpt lat="47.79477" lon="6.51258">
        <ele>404.5</ele>
        <time>2023-04-10T08:34:30Z</time>
      </trkpt>
      <trkpt lat="47.79474" lon="6.51245">
        <ele>404.8</ele>
        <time>2023-04-10T08:34:38Z</time>
      </trkpt>
      <trkpt lat="47.7947" lon="6.51231">
        <ele>405</ele>
        <time>2023-04-10T08:34:46Z</time>
      </trkpt>
      <trkpt lat="47.79466" lon="6.51218">
        <ele>405.1</ele>
        <time>2023-04-10T08:34:53Z</time>
      </trkpt>
      <trkpt lat="47.79461" lon="6.51206">
        <ele>405</ele>
        <time>2023-04-10T08:35:01Z</time>
      </trkpt>
      <trkpt lat="47.79455" lon="6.51195">
        <ele>405</ele>
        <time>2023-04-10T08:35:08Z</time>
      </trkpt>
      <trkpt lat="47.79449" lon="6.51184">
        <ele>405</ele>
        <time>2023-04-10T08:35:15Z</time>
      </trkpt>
      <trkpt lat="47.79442" lon="6.51174">
        <ele>404.9</ele>
        <time>2023-04-10T08:35:22Z</time>
      </trkpt>
      <trkpt lat="47.79434" lon="6.51165">
        <ele>404.9</ele>
        <time>2023-04-10T08:35:29Z</time>
      </trkpt>
      <trkpt lat="47.79427" lon="6.51157">
        <ele>404.9</ele>
        <time>2023-04-10T08:35:36Z</time>
      </trkpt>
      <trkpt lat="47.79418" lon="6.51149">
        <ele>404.9</ele>
        <time>2023-04-10T08:35:44Z</time>
      </trkpt>
      <trkpt lat="47.79409" lon="6.51143">
        <ele>404.9</ele>
        <time>2023-04-10T08:35:53Z</time>
      </trkpt>
      <trkpt lat="47.79399" lon="6.5114">
        <ele>404.9</ele>
        <time>2023-04-10T08:36:00Z</time>
      </trkpt>
      <trkpt lat="47.79389" lon="6.51135">
        <ele>404.9</ele>
        <time>2023-04-10T08:36:08Z</time>
      </trkpt>
      <trkpt lat="47.79381" lon="6.5113">
        <ele>404.8</ele>
        <time>2023-04-10T08:36:17Z</time>
      </trkpt>
      <trkpt lat="47.79372" lon="6.51127">
        <ele>404.7</ele>
        <time>2023-04-10T08:36:23Z</time>
      </trkpt>
      <trkpt lat="47.79362" lon="6.51124">
        <ele>404.6</ele>
        <time>2023-04-10T08:36:30Z</time>
      </trkpt>
      <trkpt lat="47.79352" lon="6.51122">
        <ele>404.5</ele>
        <time>2023-04-10T08:36:37Z</time>
      </trkpt>
      <trkpt lat="47.79343" lon="6.51119">
        <ele>404.4</ele>
        <time>2023-04-10T08:36:44Z</time>
      </trkpt>
      <trkpt lat="47.79334" lon="6.51117">
        <ele>404.3</ele>
        <time>2023-04-10T08:36:51Z</time>
      </trkpt>
      <trkpt lat="47.79325" lon="6.51116">
        <ele>404.2</ele>
        <time>2023-04-10T08:36:57Z</time>
      </trkpt>
      <trkpt lat="47.79315" lon="6.51113">
        <ele>404.1</ele>
        <time>2023-04-10T08:37:05Z</time>
      </trkpt>
      <trkpt lat="47.79306" lon="6.5111">
        <ele>403.9</ele>
        <time>2023-04-10T08:37:12Z</time>
      </trkpt>
      <trkpt lat="47.79296" lon="6.51107">
        <ele>403.5</ele>
        <time>2023-04-10T08:37:19Z</time>
      </trkpt>
      <trkpt lat="47.79287" lon="6.51102">
        <ele>402.9</ele>
        <time>2023-04-10T08:37:27Z</time>
      </trkpt>
      <trkpt lat="47.79284" lon="6.511">
        <ele>402.6</ele>
        <time>2023-04-10T08:37:32Z</time>
      </trkpt>
      <trkpt lat="47.79283" lon="6.51099">
        <ele>402.5</ele>
        <time>2023-04-10T08:37:33Z</time>
      </trkpt>
      <trkpt lat="47.79276" lon="6.51091">
        <ele>401.8</ele>
        <time>2023-04-10T08:37:39Z</time>
      </trkpt>
      <trkpt lat="47.79271" lon="6.51081">
        <ele>401.2</ele>
        <time>2023-04-10T08:37:49Z</time>
      </trkpt>
      <trkpt lat="47.79271" lon="6.51081">
        <ele>401.2</ele>
        <time>2023-04-10T08:37:52Z</time>
      </trkpt>
      <trkpt lat="47.79263" lon="6.51071">
        <ele>400.4</ele>
        <time>2023-04-10T08:38:00Z</time>
      </trkpt>
      <trkpt lat="47.79255" lon="6.51063">
        <ele>399.6</ele>
        <time>2023-04-10T08:38:06Z</time>
      </trkpt>
      <trkpt lat="47.79247" lon="6.51056">
        <ele>399</ele>
        <time>2023-04-10T08:38:12Z</time>
      </trkpt>
      <trkpt lat="47.79239" lon="6.51047">
        <ele>398.3</ele>
        <time>2023-04-10T08:38:19Z</time>
      </trkpt>
      <trkpt lat="47.79232" lon="6.51037">
        <ele>397.7</ele>
        <time>2023-04-10T08:38:26Z</time>
      </trkpt>
      <trkpt lat="47.79226" lon="6.51027">
        <ele>397.3</ele>
        <time>2023-04-10T08:38:34Z</time>
      </trkpt>
      <trkpt lat="47.79221" lon="6.51014">
        <ele>396.7</ele>
        <time>2023-04-10T08:38:43Z</time>
      </trkpt>
      <trkpt lat="47.79216" lon="6.51001">
        <ele>396.2</ele>
        <time>2023-04-10T08:38:51Z</time>
      </trkpt>
      <trkpt lat="47.79212" lon="6.50987">
        <ele>395.7</ele>
        <time>2023-04-10T08:38:57Z</time>
      </trkpt>
      <trkpt lat="47.79207" lon="6.50974">
        <ele>395.3</ele>
        <time>2023-04-10T08:39:03Z</time>
      </trkpt>
      <trkpt lat="47.79203" lon="6.50965">
        <ele>395</ele>
        <time>2023-04-10T08:39:10Z</time>
      </trkpt>
      <trkpt lat="47.79203" lon="6.50964">
        <ele>394.9</ele>
        <time>2023-04-10T08:39:11Z</time>
      </trkpt>
      <trkpt lat="47.792" lon="6.50948">
        <ele>394.5</ele>
        <time>2023-04-10T08:39:18Z</time>
      </trkpt>
      <trkpt lat="47.79195" lon="6.50935">
        <ele>394.2</ele>
        <time>2023-04-10T08:39:23Z</time>
      </trkpt>
      <trkpt lat="47.79192" lon="6.50922">
        <ele>393.9</ele>
        <time>2023-04-10T08:39:29Z</time>
      </trkpt>
      <trkpt lat="47.79191" lon="6.50907">
        <ele>393.7</ele>
        <time>2023-04-10T08:39:37Z</time>
      </trkpt>
      <trkpt lat="47.79189" lon="6.50892">
        <ele>393.6</ele>
        <time>2023-04-10T08:39:44Z</time>
      </trkpt>
      <trkpt lat="47.79188" lon="6.50877">
        <ele>393.4</ele>
        <time>2023-04-10T08:39:51Z</time>
      </trkpt>
      <trkpt lat="47.79185" lon="6.50864">
        <ele>393.2</ele>
        <time>2023-04-10T08:39:58Z</time>
      </trkpt>
      <trkpt lat="47.79187" lon="6.5085">
        <ele>393.1</ele>
        <time>2023-04-10T08:40:06Z</time>
      </trkpt>
      <trkpt lat="47.79186" lon="6.50835">
        <ele>392.8</ele>
        <time>2023-04-10T08:40:14Z</time>
      </trkpt>
      <trkpt lat="47.79185" lon="6.50821">
        <ele>392.5</ele>
        <time>2023-04-10T08:40:22Z</time>
      </trkpt>
      <trkpt lat="47.7919" lon="6.50808">
        <ele>392.2</ele>
        <time>2023-04-10T08:40:30Z</time>
      </trkpt>
      <trkpt lat="47.79194" lon="6.50796">
        <ele>391.9</ele>
        <time>2023-04-10T08:40:38Z</time>
      </trkpt>
      <trkpt lat="47.79197" lon="6.50783">
        <ele>391.6</ele>
        <time>2023-04-10T08:40:44Z</time>
      </trkpt>
      <trkpt lat="47.79204" lon="6.50773">
        <ele>391.3</ele>
        <time>2023-04-10T08:40:50Z</time>
      </trkpt>
      <trkpt lat="47.79212" lon="6.50766">
        <ele>391</ele>
        <time>2023-04-10T08:40:56Z</time>
      </trkpt>
      <trkpt lat="47.79219" lon="6.50757">
        <ele>390.6</ele>
        <time>2023-04-10T08:41:04Z</time>
      </trkpt>
      <trkpt lat="47.79226" lon="6.50748">
        <ele>390</ele>
        <time>2023-04-10T08:41:17Z</time>
      </trkpt>
      <trkpt lat="47.79228" lon="6.5074">
        <ele>389.5</ele>
        <time>2023-04-10T08:41:28Z</time>
      </trkpt>
      <trkpt lat="47.79228" lon="6.50739">
        <ele>389.4</ele>
        <time>2023-04-10T08:41:31Z</time>
      </trkpt>
      <trkpt lat="47.79226" lon="6.50725">
        <ele>388.4</ele>
        <time>2023-04-10T08:41:40Z</time>
      </trkpt>
      <trkpt lat="47.79226" lon="6.50721">
        <ele>388</ele>
        <time>2023-04-10T08:41:47Z</time>
      </trkpt>
      <trkpt lat="47.79226" lon="6.5072">
        <ele>388</ele>
        <time>2023-04-10T08:41:48Z</time>
      </trkpt>
      <trkpt lat="47.79219" lon="6.50711">
        <ele>386.9</ele>
        <time>2023-04-10T08:41:56Z</time>
      </trkpt>
      <trkpt lat="47.79211" lon="6.50702">
        <ele>385.7</ele>
        <time>2023-04-10T08:42:04Z</time>
      </trkpt>
      <trkpt lat="47.79202" lon="6.50696">
        <ele>384.8</ele>
        <time>2023-04-10T08:42:11Z</time>
      </trkpt>
      <trkpt lat="47.79194" lon="6.50689">
        <ele>384</ele>
        <time>2023-04-10T08:42:18Z</time>
      </trkpt>
      <trkpt lat="47.79185" lon="6.50682">
        <ele>383.4</ele>
        <time>2023-04-10T08:42:26Z</time>
      </trkpt>
      <trkpt lat="47.79176" lon="6.50677">
        <ele>382.7</ele>
        <time>2023-04-10T08:42:32Z</time>
      </trkpt>
      <trkpt lat="47.79166" lon="6.50672">
        <ele>382.5</ele>
        <time>2023-04-10T08:42:37Z</time>
      </trkpt>
      <trkpt lat="47.79157" lon="6.50667">
        <ele>382.3</ele>
        <time>2023-04-10T08:42:43Z</time>
      </trkpt>
      <trkpt lat="47.79148" lon="6.50661">
        <ele>382.3</ele>
        <time>2023-04-10T08:42:50Z</time>
      </trkpt>
      <trkpt lat="47.79139" lon="6.50655">
        <ele>382.5</ele>
        <time>2023-04-10T08:42:56Z</time>
      </trkpt>
      <trkpt lat="47.79129" lon="6.50648">
        <ele>382.7</ele>
        <time>2023-04-10T08:43:03Z</time>
      </trkpt>
      <trkpt lat="47.79121" lon="6.50641">
        <ele>382.9</ele>
        <time>2023-04-10T08:43:10Z</time>
      </trkpt>
      <trkpt lat="47.79112" lon="6.50633">
        <ele>383.1</ele>
        <time>2023-04-10T08:43:17Z</time>
      </trkpt>
      <trkpt lat="47.79104" lon="6.50624">
        <ele>383.3</ele>
        <time>2023-04-10T08:43:24Z</time>
      </trkpt>
      <trkpt lat="47.79096" lon="6.50614">
        <ele>383.6</ele>
        <time>2023-04-10T08:43:31Z</time>
      </trkpt>
      <trkpt lat="47.79089" lon="6.50605">
        <ele>383.7</ele>
        <time>2023-04-10T08:43:37Z</time>
      </trkpt>
      <trkpt lat="47.79084" lon="6.50595">
        <ele>383.9</ele>
        <time>2023-04-10T08:43:44Z</time>
      </trkpt>
      <trkpt lat="47.79078" lon="6.50584">
        <ele>384</ele>
        <time>2023-04-10T08:43:51Z</time>
      </trkpt>
      <trkpt lat="47.79071" lon="6.50574">
        <ele>384.1</ele>
        <time>2023-04-10T08:43:58Z</time>
      </trkpt>
      <trkpt lat="47.79065" lon="6.50564">
        <ele>384.3</ele>
        <time>2023-04-10T08:44:05Z</time>
      </trkpt>
      <trkpt lat="47.79058" lon="6.50553">
        <ele>384.6</ele>
        <time>2023-04-10T08:44:13Z</time>
      </trkpt>
      <trkpt lat="47.79051" lon="6.50543">
        <ele>384.8</ele>
        <time>2023-04-10T08:44:21Z</time>
      </trkpt>
      <trkpt lat="47.79044" lon="6.50533">
        <ele>385.1</ele>
        <time>2023-04-10T08:44:28Z</time>
      </trkpt>
      <trkpt lat="47.79037" lon="6.50524">
        <ele>385.3</ele>
        <time>2023-04-10T08:44:35Z</time>
      </trkpt>
      <trkpt lat="47.79029" lon="6.50515">
        <ele>385.6</ele>
        <time>2023-04-10T08:44:43Z</time>
      </trkpt>
      <trkpt lat="47.79021" lon="6.50507">
        <ele>385.8</ele>
        <time>2023-04-10T08:44:49Z</time>
      </trkpt>
      <trkpt lat="47.79013" lon="6.50499">
        <ele>386.1</ele>
        <time>2023-04-10T08:44:56Z</time>
      </trkpt>
      <trkpt lat="47.79007" lon="6.5049">
        <ele>386.2</ele>
        <time>2023-04-10T08:45:03Z</time>
      </trkpt>
      <trkpt lat="47.78999" lon="6.50481">
        <ele>386.2</ele>
        <time>2023-04-10T08:45:11Z</time>
      </trkpt>
      <trkpt lat="47.78991" lon="6.50472">
        <ele>386.2</ele>
        <time>2023-04-10T08:45:19Z</time>
      </trkpt>
      <trkpt lat="47.78983" lon="6.50463">
        <ele>386.2</ele>
        <time>2023-04-10T08:45:27Z</time>
      </trkpt>
      <trkpt lat="47.78976" lon="6.50454">
        <ele>386.2</ele>
        <time>2023-04-10T08:45:35Z</time>
      </trkpt>
      <trkpt lat="47.78969" lon="6.50445">
        <ele>386.2</ele>
        <time>2023-04-10T08:45:43Z</time>
      </trkpt>
      <trkpt lat="47.78961" lon="6.50435">
        <ele>386.2</ele>
        <time>2023-04-10T08:45:51Z</time>
      </trkpt>
      <trkpt lat="47.78953" lon="6.50427">
        <ele>386.2</ele>
        <time>2023-04-10T08:45:57Z</time>
      </trkpt>
      <trkpt lat="47.78945" lon="6.50419">
        <ele>386.4</ele>
        <time>2023-04-10T08:46:03Z</time>
      </trkpt>
      <trkpt lat="47.78937" lon="6.5041">
        <ele>386.6</ele>
        <time>2023-04-10T08:46:11Z</time>
      </trkpt>
      <trkpt lat="47.7893" lon="6.50401">
        <ele>386.7</ele>
        <time>2023-04-10T08:46:18Z</time>
      </trkpt>
      <trkpt lat="47.78921" lon="6.50394">
        <ele>386.9</ele>
        <time>2023-04-10T08:46:26Z</time>
      </trkpt>
      <trkpt lat="47.78914" lon="6.50387">
        <ele>387.1</ele>
        <time>2023-04-10T08:46:33Z</time>
      </trkpt>
      <trkpt lat="47.78906" lon="6.50379">
        <ele>387.2</ele>
        <time>2023-04-10T08:46:41Z</time>
      </trkpt>
      <trkpt lat="47.78898" lon="6.50371">
        <ele>387.4</ele>
        <time>2023-04-10T08:46:48Z</time>
      </trkpt>
      <trkpt lat="47.7889" lon="6.50365">
        <ele>387.5</ele>
        <time>2023-04-10T08:46:55Z</time>
      </trkpt>
      <trkpt lat="47.78882" lon="6.50359">
        <ele>387.6</ele>
        <time>2023-04-10T08:47:02Z</time>
      </trkpt>
      <trkpt lat="47.78872" lon="6.50354">
        <ele>387.6</ele>
        <time>2023-04-10T08:47:09Z</time>
      </trkpt>
      <trkpt lat="47.78862" lon="6.50351">
        <ele>387.6</ele>
        <time>2023-04-10T08:47:17Z</time>
      </trkpt>
      <trkpt lat="47.78861" lon="6.5035">
        <ele>387.5</ele>
        <time>2023-04-10T08:47:22Z</time>
      </trkpt>
      <trkpt lat="47.78861" lon="6.5035">
        <ele>387.5</ele>
        <time>2023-04-10T08:47:23Z</time>
      </trkpt>
      <trkpt lat="47.78851" lon="6.50349">
        <ele>387.4</ele>
        <time>2023-04-10T08:47:31Z</time>
      </trkpt>
      <trkpt lat="47.78841" lon="6.50347">
        <ele>387.4</ele>
        <time>2023-04-10T08:47:38Z</time>
      </trkpt>
      <trkpt lat="47.78832" lon="6.50347">
        <ele>387.4</ele>
        <time>2023-04-10T08:47:45Z</time>
      </trkpt>
      <trkpt lat="47.78836" lon="6.5036">
        <ele>387.3</ele>
        <time>2023-04-10T08:47:55Z</time>
      </trkpt>
      <trkpt lat="47.78845" lon="6.50365">
        <ele>387.3</ele>
        <time>2023-04-10T08:48:05Z</time>
      </trkpt>
      <trkpt lat="47.78846" lon="6.50366">
        <ele>387.3</ele>
        <time>2023-04-10T08:48:09Z</time>
      </trkpt>
      <trkpt lat="47.78846" lon="6.50366">
        <ele>387.3</ele>
        <time>2023-04-10T08:48:57Z</time>
      </trkpt>
      <trkpt lat="47.78842" lon="6.50362">
        <ele>387.3</ele>
        <time>2023-04-10T08:49:07Z</time>
      </trkpt>
      <trkpt lat="47.78842" lon="6.50362">
        <ele>387.3</ele>
        <time>2023-04-10T08:49:15Z</time>
      </trkpt>
      <trkpt lat="47.78844" lon="6.50364">
        <ele>387.3</ele>
        <time>2023-04-10T08:49:21Z</time>
      </trkpt>
      <trkpt lat="47.78844" lon="6.50364">
        <ele>387.3</ele>
        <time>2023-04-10T08:49:54Z</time>
      </trkpt>
      <trkpt lat="47.78844" lon="6.50364">
        <ele>387.3</ele>
        <time>2023-04-10T08:49:55Z</time>
      </trkpt>
      <trkpt lat="47.78844" lon="6.50364">
        <ele>387.3</ele>
        <time>2023-04-10T08:51:38Z</time>
      </trkpt>
      <trkpt lat="47.78844" lon="6.50364">
        <ele>387.3</ele>
        <time>2023-04-10T08:51:39Z</time>
      </trkpt>
      <trkpt lat="47.78844" lon="6.50363">
        <ele>387.3</ele>
        <time>2023-04-10T08:54:02Z</time>
      </trkpt>
      <trkpt lat="47.78843" lon="6.50365">
        <ele>387.3</ele>
        <time>2023-04-10T08:54:08Z</time>
      </trkpt>
      <trkpt lat="47.78843" lon="6.50366">
        <ele>387.2</ele>
        <time>2023-04-10T08:54:10Z</time>
      </trkpt>
      <trkpt lat="47.78834" lon="6.50361">
        <ele>387.2</ele>
        <time>2023-04-10T08:54:21Z</time>
      </trkpt>
      <trkpt lat="47.78825" lon="6.50355">
        <ele>387.1</ele>
        <time>2023-04-10T08:54:29Z</time>
      </trkpt>
      <trkpt lat="47.78816" lon="6.50351">
        <ele>386.8</ele>
        <time>2023-04-10T08:54:37Z</time>
      </trkpt>
      <trkpt lat="47.78807" lon="6.5035">
        <ele>386.4</ele>
        <time>2023-04-10T08:54:44Z</time>
      </trkpt>
      <trkpt lat="47.78798" lon="6.50351">
        <ele>385.9</ele>
        <time>2023-04-10T08:54:51Z</time>
      </trkpt>
      <trkpt lat="47.78789" lon="6.50356">
        <ele>385.4</ele>
        <time>2023-04-10T08:54:58Z</time>
      </trkpt>
      <trkpt lat="47.7878" lon="6.5036">
        <ele>384.8</ele>
        <time>2023-04-10T08:55:05Z</time>
      </trkpt>
      <trkpt lat="47.78771" lon="6.50364">
        <ele>384.3</ele>
        <time>2023-04-10T08:55:12Z</time>
      </trkpt>
      <trkpt lat="47.78761" lon="6.50368">
        <ele>383.7</ele>
        <time>2023-04-10T08:55:20Z</time>
      </trkpt>
      <trkpt lat="47.78751" lon="6.50373">
        <ele>383.1</ele>
        <time>2023-04-10T08:55:28Z</time>
      </trkpt>
      <trkpt lat="47.78743" lon="6.50378">
        <ele>382.5</ele>
        <time>2023-04-10T08:55:35Z</time>
      </trkpt>
      <trkpt lat="47.78733" lon="6.50382">
        <ele>382</ele>
        <time>2023-04-10T08:55:42Z</time>
      </trkpt>
      <trkpt lat="47.78724" lon="6.50384">
        <ele>381.4</ele>
        <time>2023-04-10T08:55:49Z</time>
      </trkpt>
      <trkpt lat="47.78715" lon="6.50387">
        <ele>380.9</ele>
        <time>2023-04-10T08:55:56Z</time>
      </trkpt>
      <trkpt lat="47.78705" lon="6.50389">
        <ele>380.3</ele>
        <time>2023-04-10T08:56:03Z</time>
      </trkpt>
      <trkpt lat="47.78696" lon="6.50391">
        <ele>379.6</ele>
        <time>2023-04-10T08:56:10Z</time>
      </trkpt>
      <trkpt lat="47.78686" lon="6.50394">
        <ele>378.9</ele>
        <time>2023-04-10T08:56:17Z</time>
      </trkpt>
      <trkpt lat="47.78677" lon="6.50394">
        <ele>378.3</ele>
        <time>2023-04-10T08:56:24Z</time>
      </trkpt>
      <trkpt lat="47.78668" lon="6.50393">
        <ele>377.7</ele>
        <time>2023-04-10T08:56:31Z</time>
      </trkpt>
      <trkpt lat="47.78659" lon="6.50393">
        <ele>377.2</ele>
        <time>2023-04-10T08:56:38Z</time>
      </trkpt>
      <trkpt lat="47.78649" lon="6.50391">
        <ele>376.8</ele>
        <time>2023-04-10T08:56:46Z</time>
      </trkpt>
      <trkpt lat="47.78639" lon="6.50389">
        <ele>376.5</ele>
        <time>2023-04-10T08:56:54Z</time>
      </trkpt>
      <trkpt lat="47.78629" lon="6.50388">
        <ele>376.4</ele>
        <time>2023-04-10T08:57:01Z</time>
      </trkpt>
      <trkpt lat="47.78619" lon="6.50391">
        <ele>376.5</ele>
        <time>2023-04-10T08:57:08Z</time>
      </trkpt>
      <trkpt lat="47.78614" lon="6.50402">
        <ele>376.3</ele>
        <time>2023-04-10T08:57:15Z</time>
      </trkpt>
      <trkpt lat="47.78609" lon="6.50414">
        <ele>376.2</ele>
        <time>2023-04-10T08:57:22Z</time>
      </trkpt>
      <trkpt lat="47.78606" lon="6.50429">
        <ele>376.2</ele>
        <time>2023-04-10T08:57:30Z</time>
      </trkpt>
      <trkpt lat="47.78603" lon="6.50443">
        <ele>376.3</ele>
        <time>2023-04-10T08:57:37Z</time>
      </trkpt>
      <trkpt lat="47.78601" lon="6.50458">
        <ele>376.5</ele>
        <time>2023-04-10T08:57:44Z</time>
      </trkpt>
      <trkpt lat="47.78599" lon="6.50471">
        <ele>376.6</ele>
        <time>2023-04-10T08:57:50Z</time>
      </trkpt>
      <trkpt lat="47.78597" lon="6.50485">
        <ele>376.6</ele>
        <time>2023-04-10T08:57:57Z</time>
      </trkpt>
      <trkpt lat="47.78595" lon="6.50498">
        <ele>376.7</ele>
        <time>2023-04-10T08:58:04Z</time>
      </trkpt>
      <trkpt lat="47.78592" lon="6.50511">
        <ele>376.8</ele>
        <time>2023-04-10T08:58:11Z</time>
      </trkpt>
      <trkpt lat="47.78589" lon="6.50524">
        <ele>376.9</ele>
        <time>2023-04-10T08:58:18Z</time>
      </trkpt>
      <trkpt lat="47.78587" lon="6.50539">
        <ele>377.2</ele>
        <time>2023-04-10T08:58:25Z</time>
      </trkpt>
      <trkpt lat="47.78586" lon="6.50554">
        <ele>377.5</ele>
        <time>2023-04-10T08:58:32Z</time>
      </trkpt>
      <trkpt lat="47.78583" lon="6.50569">
        <ele>377.9</ele>
        <time>2023-04-10T08:58:39Z</time>
      </trkpt>
      <trkpt lat="47.7858" lon="6.50582">
        <ele>378.3</ele>
        <time>2023-04-10T08:58:46Z</time>
      </trkpt>
      <trkpt lat="47.78575" lon="6.50593">
        <ele>379.1</ele>
        <time>2023-04-10T08:58:53Z</time>
      </trkpt>
      <trkpt lat="47.78577" lon="6.50607">
        <ele>381.1</ele>
        <time>2023-04-10T08:59:01Z</time>
      </trkpt>
      <trkpt lat="47.78581" lon="6.5062">
        <ele>383</ele>
        <time>2023-04-10T08:59:08Z</time>
      </trkpt>
      <trkpt lat="47.78586" lon="6.50632">
        <ele>384.9</ele>
        <time>2023-04-10T08:59:15Z</time>
      </trkpt>
      <trkpt lat="47.7859" lon="6.50645">
        <ele>387</ele>
        <time>2023-04-10T08:59:22Z</time>
      </trkpt>
      <trkpt lat="47.78592" lon="6.50659">
        <ele>387.6</ele>
        <time>2023-04-10T08:59:29Z</time>
      </trkpt>
      <trkpt lat="47.78593" lon="6.50673">
        <ele>388</ele>
        <time>2023-04-10T08:59:37Z</time>
      </trkpt>
      <trkpt lat="47.78588" lon="6.50685">
        <ele>388.4</ele>
        <time>2023-04-10T08:59:47Z</time>
      </trkpt>
      <trkpt lat="47.78579" lon="6.50691">
        <ele>388.5</ele>
        <time>2023-04-10T08:59:56Z</time>
      </trkpt>
      <trkpt lat="47.78569" lon="6.50693">
        <ele>388.6</ele>
        <time>2023-04-10T09:00:04Z</time>
      </trkpt>
      <trkpt lat="47.7856" lon="6.50699">
        <ele>388.7</ele>
        <time>2023-04-10T09:00:12Z</time>
      </trkpt>
      <trkpt lat="47.78551" lon="6.50703">
        <ele>388.9</ele>
        <time>2023-04-10T09:00:19Z</time>
      </trkpt>
      <trkpt lat="47.78543" lon="6.5071">
        <ele>389</ele>
        <time>2023-04-10T09:00:26Z</time>
      </trkpt>
      <trkpt lat="47.78534" lon="6.50718">
        <ele>389</ele>
        <time>2023-04-10T09:00:34Z</time>
      </trkpt>
      <trkpt lat="47.78531" lon="6.50731">
        <ele>389.8</ele>
        <time>2023-04-10T09:00:43Z</time>
      </trkpt>
      <trkpt lat="47.78534" lon="6.50746">
        <ele>391.4</ele>
        <time>2023-04-10T09:00:51Z</time>
      </trkpt>
      <trkpt lat="47.78539" lon="6.50759">
        <ele>393</ele>
        <time>2023-04-10T09:00:58Z</time>
      </trkpt>
      <trkpt lat="47.78543" lon="6.50772">
        <ele>394.6</ele>
        <time>2023-04-10T09:01:05Z</time>
      </trkpt>
      <trkpt lat="47.78547" lon="6.50786">
        <ele>396.2</ele>
        <time>2023-04-10T09:01:13Z</time>
      </trkpt>
      <trkpt lat="47.7855" lon="6.50799">
        <ele>397.8</ele>
        <time>2023-04-10T09:01:21Z</time>
      </trkpt>
      <trkpt lat="47.78552" lon="6.50814">
        <ele>399</ele>
        <time>2023-04-10T09:01:29Z</time>
      </trkpt>
      <trkpt lat="47.78553" lon="6.50828">
        <ele>399.8</ele>
        <time>2023-04-10T09:01:36Z</time>
      </trkpt>
      <trkpt lat="47.78554" lon="6.50844">
        <ele>400.4</ele>
        <time>2023-04-10T09:01:44Z</time>
      </trkpt>
      <trkpt lat="47.78553" lon="6.50859">
        <ele>400.7</ele>
        <time>2023-04-10T09:01:52Z</time>
      </trkpt>
      <trkpt lat="47.78553" lon="6.50872">
        <ele>400.6</ele>
        <time>2023-04-10T09:01:59Z</time>
      </trkpt>
      <trkpt lat="47.78554" lon="6.50887">
        <ele>400.3</ele>
        <time>2023-04-10T09:02:06Z</time>
      </trkpt>
      <trkpt lat="47.78555" lon="6.50902">
        <ele>399.7</ele>
        <time>2023-04-10T09:02:15Z</time>
      </trkpt>
      <trkpt lat="47.78555" lon="6.50916">
        <ele>398.9</ele>
        <time>2023-04-10T09:02:23Z</time>
      </trkpt>
      <trkpt lat="47.78558" lon="6.5093">
        <ele>397.7</ele>
        <time>2023-04-10T09:02:31Z</time>
      </trkpt>
      <trkpt lat="47.78559" lon="6.50945">
        <ele>396.5</ele>
        <time>2023-04-10T09:02:38Z</time>
      </trkpt>
      <trkpt lat="47.78562" lon="6.50958">
        <ele>395.4</ele>
        <time>2023-04-10T09:02:48Z</time>
      </trkpt>
      <trkpt lat="47.78568" lon="6.50969">
        <ele>394.4</ele>
        <time>2023-04-10T09:02:57Z</time>
      </trkpt>
      <trkpt lat="47.78573" lon="6.50982">
        <ele>393.3</ele>
        <time>2023-04-10T09:03:06Z</time>
      </trkpt>
      <trkpt lat="47.78579" lon="6.50993">
        <ele>391.9</ele>
        <time>2023-04-10T09:03:13Z</time>
      </trkpt>
      <trkpt lat="47.78584" lon="6.51005">
        <ele>390.6</ele>
        <time>2023-04-10T09:03:19Z</time>
      </trkpt>
      <trkpt lat="47.7859" lon="6.51016">
        <ele>389.5</ele>
        <time>2023-04-10T09:03:27Z</time>
      </trkpt>
      <trkpt lat="47.78595" lon="6.51029">
        <ele>388.4</ele>
        <time>2023-04-10T09:03:36Z</time>
      </trkpt>
      <trkpt lat="47.78602" lon="6.51039">
        <ele>387.4</ele>
        <time>2023-04-10T09:03:43Z</time>
      </trkpt>
      <trkpt lat="47.78607" lon="6.5105">
        <ele>386.5</ele>
        <time>2023-04-10T09:03:53Z</time>
      </trkpt>
      <trkpt lat="47.78616" lon="6.51055">
        <ele>385.8</ele>
        <time>2023-04-10T09:03:59Z</time>
      </trkpt>
      <trkpt lat="47.78623" lon="6.51066">
        <ele>385.2</ele>
        <time>2023-04-10T09:04:07Z</time>
      </trkpt>
      <trkpt lat="47.7863" lon="6.51076">
        <ele>384.7</ele>
        <time>2023-04-10T09:04:12Z</time>
      </trkpt>
      <trkpt lat="47.78638" lon="6.51085">
        <ele>384.1</ele>
        <time>2023-04-10T09:04:21Z</time>
      </trkpt>
      <trkpt lat="47.78647" lon="6.51091">
        <ele>383.9</ele>
        <time>2023-04-10T09:04:28Z</time>
      </trkpt>
      <trkpt lat="47.78655" lon="6.51099">
        <ele>383.8</ele>
        <time>2023-04-10T09:04:38Z</time>
      </trkpt>
      <trkpt lat="47.78662" lon="6.51106">
        <ele>383.7</ele>
        <time>2023-04-10T09:04:45Z</time>
      </trkpt>
      <trkpt lat="47.78671" lon="6.51111">
        <ele>383.7</ele>
        <time>2023-04-10T09:04:56Z</time>
      </trkpt>
      <trkpt lat="47.7868" lon="6.51118">
        <ele>383.6</ele>
        <time>2023-04-10T09:05:06Z</time>
      </trkpt>
      <trkpt lat="47.78688" lon="6.51125">
        <ele>383.5</ele>
        <time>2023-04-10T09:05:15Z</time>
      </trkpt>
      <trkpt lat="47.78698" lon="6.51128">
        <ele>383.2</ele>
        <time>2023-04-10T09:05:21Z</time>
      </trkpt>
      <trkpt lat="47.78707" lon="6.51133">
        <ele>383</ele>
        <time>2023-04-10T09:05:27Z</time>
      </trkpt>
      <trkpt lat="47.78716" lon="6.51137">
        <ele>382.7</ele>
        <time>2023-04-10T09:05:34Z</time>
      </trkpt>
      <trkpt lat="47.78725" lon="6.51141">
        <ele>382.4</ele>
        <time>2023-04-10T09:05:41Z</time>
      </trkpt>
      <trkpt lat="47.78735" lon="6.51144">
        <ele>382</ele>
        <time>2023-04-10T09:05:49Z</time>
      </trkpt>
      <trkpt lat="47.78744" lon="6.51148">
        <ele>381.4</ele>
        <time>2023-04-10T09:05:58Z</time>
      </trkpt>
      <trkpt lat="47.78754" lon="6.51147">
        <ele>380.6</ele>
        <time>2023-04-10T09:06:04Z</time>
      </trkpt>
      <trkpt lat="47.78763" lon="6.51152">
        <ele>379.7</ele>
        <time>2023-04-10T09:06:09Z</time>
      </trkpt>
      <trkpt lat="47.78769" lon="6.51164">
        <ele>378.8</ele>
        <time>2023-04-10T09:06:19Z</time>
      </trkpt>
      <trkpt lat="47.78772" lon="6.51178">
        <ele>377.9</ele>
        <time>2023-04-10T09:06:26Z</time>
      </trkpt>
      <trkpt lat="47.78775" lon="6.51193">
        <ele>377</ele>
        <time>2023-04-10T09:06:34Z</time>
      </trkpt>
      <trkpt lat="47.78774" lon="6.51209">
        <ele>375.7</ele>
        <time>2023-04-10T09:06:40Z</time>
      </trkpt>
      <trkpt lat="47.7877" lon="6.51222">
        <ele>374.3</ele>
        <time>2023-04-10T09:06:46Z</time>
      </trkpt>
      <trkpt lat="47.78763" lon="6.51232">
        <ele>373</ele>
        <time>2023-04-10T09:06:53Z</time>
      </trkpt>
      <trkpt lat="47.78758" lon="6.51243">
        <ele>372.1</ele>
        <time>2023-04-10T09:07:03Z</time>
      </trkpt>
      <trkpt lat="47.78753" lon="6.51256">
        <ele>371.3</ele>
        <time>2023-04-10T09:07:12Z</time>
      </trkpt>
      <trkpt lat="47.78751" lon="6.5127">
        <ele>370.8</ele>
        <time>2023-04-10T09:07:18Z</time>
      </trkpt>
      <trkpt lat="47.78748" lon="6.51284">
        <ele>370.4</ele>
        <time>2023-04-10T09:07:24Z</time>
      </trkpt>
      <trkpt lat="47.78746" lon="6.51298">
        <ele>370.1</ele>
        <time>2023-04-10T09:07:30Z</time>
      </trkpt>
      <trkpt lat="47.78742" lon="6.51311">
        <ele>369.9</ele>
        <time>2023-04-10T09:07:38Z</time>
      </trkpt>
      <trkpt lat="47.78742" lon="6.51325">
        <ele>369.9</ele>
        <time>2023-04-10T09:07:46Z</time>
      </trkpt>
      <trkpt lat="47.78743" lon="6.51341">
        <ele>370</ele>
        <time>2023-04-10T09:07:55Z</time>
      </trkpt>
      <trkpt lat="47.78753" lon="6.51345">
        <ele>370.8</ele>
        <time>2023-04-10T09:08:04Z</time>
      </trkpt>
      <trkpt lat="47.78762" lon="6.5135">
        <ele>371.5</ele>
        <time>2023-04-10T09:08:10Z</time>
      </trkpt>
      <trkpt lat="47.78772" lon="6.51356">
        <ele>372.4</ele>
        <time>2023-04-10T09:08:17Z</time>
      </trkpt>
      <trkpt lat="47.78781" lon="6.5136">
        <ele>373.2</ele>
        <time>2023-04-10T09:08:24Z</time>
      </trkpt>
      <trkpt lat="47.78791" lon="6.51361">
        <ele>373.9</ele>
        <time>2023-04-10T09:08:32Z</time>
      </trkpt>
      <trkpt lat="47.788" lon="6.51358">
        <ele>374.4</ele>
        <time>2023-04-10T09:08:39Z</time>
      </trkpt>
      <trkpt lat="47.78809" lon="6.51354">
        <ele>374.8</ele>
        <time>2023-04-10T09:08:45Z</time>
      </trkpt>
      <trkpt lat="47.78818" lon="6.5135">
        <ele>375.2</ele>
        <time>2023-04-10T09:08:51Z</time>
      </trkpt>
      <trkpt lat="47.78827" lon="6.51347">
        <ele>375.7</ele>
        <time>2023-04-10T09:08:59Z</time>
      </trkpt>
      <trkpt lat="47.78838" lon="6.51345">
        <ele>376.3</ele>
        <time>2023-04-10T09:09:06Z</time>
      </trkpt>
      <trkpt lat="47.78848" lon="6.51342">
        <ele>377</ele>
        <time>2023-04-10T09:09:14Z</time>
      </trkpt>
      <trkpt lat="47.78857" lon="6.51339">
        <ele>377.5</ele>
        <time>2023-04-10T09:09:21Z</time>
      </trkpt>
      <trkpt lat="47.78866" lon="6.51338">
        <ele>378.1</ele>
        <time>2023-04-10T09:09:29Z</time>
      </trkpt>
      <trkpt lat="47.78876" lon="6.51339">
        <ele>378.7</ele>
        <time>2023-04-10T09:09:37Z</time>
      </trkpt>
      <trkpt lat="47.78885" lon="6.51342">
        <ele>379.3</ele>
        <time>2023-04-10T09:09:45Z</time>
      </trkpt>
      <trkpt lat="47.78894" lon="6.51347">
        <ele>379.9</ele>
        <time>2023-04-10T09:09:54Z</time>
      </trkpt>
      <trkpt lat="47.78904" lon="6.51348">
        <ele>380.4</ele>
        <time>2023-04-10T09:10:03Z</time>
      </trkpt>
      <trkpt lat="47.78913" lon="6.51346">
        <ele>380.8</ele>
        <time>2023-04-10T09:10:14Z</time>
      </trkpt>
      <trkpt lat="47.78922" lon="6.51338">
        <ele>380.9</ele>
        <time>2023-04-10T09:10:24Z</time>
      </trkpt>
      <trkpt lat="47.7893" lon="6.51332">
        <ele>381</ele>
        <time>2023-04-10T09:10:32Z</time>
      </trkpt>
      <trkpt lat="47.7894" lon="6.51329">
        <ele>381.1</ele>
        <time>2023-04-10T09:10:42Z</time>
      </trkpt>
      <trkpt lat="47.78949" lon="6.51329">
        <ele>381.3</ele>
        <time>2023-04-10T09:10:49Z</time>
      </trkpt>
      <trkpt lat="47.78959" lon="6.51324">
        <ele>381.8</ele>
        <time>2023-04-10T09:10:58Z</time>
      </trkpt>
      <trkpt lat="47.78969" lon="6.51319">
        <ele>382.4</ele>
        <time>2023-04-10T09:11:04Z</time>
      </trkpt>
      <trkpt lat="47.78978" lon="6.51312">
        <ele>383</ele>
        <time>2023-04-10T09:11:10Z</time>
      </trkpt>
      <trkpt lat="47.78987" lon="6.51306">
        <ele>383.5</ele>
        <time>2023-04-10T09:11:17Z</time>
      </trkpt>
      <trkpt lat="47.78996" lon="6.51298">
        <ele>384.1</ele>
        <time>2023-04-10T09:11:25Z</time>
      </trkpt>
      <trkpt lat="47.79004" lon="6.51293">
        <ele>384.7</ele>
        <time>2023-04-10T09:11:32Z</time>
      </trkpt>
      <trkpt lat="47.79014" lon="6.51289">
        <ele>385.3</ele>
        <time>2023-04-10T09:11:38Z</time>
      </trkpt>
      <trkpt lat="47.79023" lon="6.51286">
        <ele>385.8</ele>
        <time>2023-04-10T09:11:43Z</time>
      </trkpt>
      <trkpt lat="47.79033" lon="6.51288">
        <ele>386.4</ele>
        <time>2023-04-10T09:11:49Z</time>
      </trkpt>
      <trkpt lat="47.79043" lon="6.51286">
        <ele>387.1</ele>
        <time>2023-04-10T09:11:59Z</time>
      </trkpt>
      <trkpt lat="47.79052" lon="6.51287">
        <ele>387.8</ele>
        <time>2023-04-10T09:12:08Z</time>
      </trkpt>
      <trkpt lat="47.79061" lon="6.51291">
        <ele>388.4</ele>
        <time>2023-04-10T09:12:14Z</time>
      </trkpt>
      <trkpt lat="47.7907" lon="6.51296">
        <ele>388.8</ele>
        <time>2023-04-10T09:12:20Z</time>
      </trkpt>
      <trkpt lat="47.79079" lon="6.51297">
        <ele>389.2</ele>
        <time>2023-04-10T09:12:28Z</time>
      </trkpt>
      <trkpt lat="47.79088" lon="6.513">
        <ele>389.7</ele>
        <time>2023-04-10T09:12:36Z</time>
      </trkpt>
      <trkpt lat="47.79099" lon="6.513">
        <ele>390.3</ele>
        <time>2023-04-10T09:12:44Z</time>
      </trkpt>
      <trkpt lat="47.79108" lon="6.51299">
        <ele>390.9</ele>
        <time>2023-04-10T09:12:52Z</time>
      </trkpt>
      <trkpt lat="47.79117" lon="6.51298">
        <ele>391.4</ele>
        <time>2023-04-10T09:12:57Z</time>
      </trkpt>
      <trkpt lat="47.79126" lon="6.51299">
        <ele>391.8</ele>
        <time>2023-04-10T09:13:04Z</time>
      </trkpt>
      <trkpt lat="47.79136" lon="6.51298">
        <ele>392.3</ele>
        <time>2023-04-10T09:13:11Z</time>
      </trkpt>
      <trkpt lat="47.79147" lon="6.51296">
        <ele>392.6</ele>
        <time>2023-04-10T09:13:18Z</time>
      </trkpt>
      <trkpt lat="47.79156" lon="6.51295">
        <ele>393</ele>
        <time>2023-04-10T09:13:23Z</time>
      </trkpt>
      <trkpt lat="47.79165" lon="6.51298">
        <ele>393.5</ele>
        <time>2023-04-10T09:13:30Z</time>
      </trkpt>
      <trkpt lat="47.79175" lon="6.51301">
        <ele>394.2</ele>
        <time>2023-04-10T09:13:38Z</time>
      </trkpt>
      <trkpt lat="47.79184" lon="6.51305">
        <ele>395</ele>
        <time>2023-04-10T09:13:46Z</time>
      </trkpt>
      <trkpt lat="47.79194" lon="6.51305">
        <ele>395.9</ele>
        <time>2023-04-10T09:13:53Z</time>
      </trkpt>
      <trkpt lat="47.79203" lon="6.51306">
        <ele>396.6</ele>
        <time>2023-04-10T09:13:59Z</time>
      </trkpt>
      <trkpt lat="47.79213" lon="6.51309">
        <ele>397.1</ele>
        <time>2023-04-10T09:14:07Z</time>
      </trkpt>
      <trkpt lat="47.79222" lon="6.51315">
        <ele>397.6</ele>
        <time>2023-04-10T09:14:13Z</time>
      </trkpt>
      <trkpt lat="47.79231" lon="6.5132">
        <ele>398.1</ele>
        <time>2023-04-10T09:14:20Z</time>
      </trkpt>
      <trkpt lat="47.7924" lon="6.51322">
        <ele>398.7</ele>
        <time>2023-04-10T09:14:27Z</time>
      </trkpt>
      <trkpt lat="47.79249" lon="6.51324">
        <ele>399.5</ele>
        <time>2023-04-10T09:14:34Z</time>
      </trkpt>
      <trkpt lat="47.79259" lon="6.51327">
        <ele>400.3</ele>
        <time>2023-04-10T09:14:41Z</time>
      </trkpt>
      <trkpt lat="47.79268" lon="6.51331">
        <ele>401</ele>
        <time>2023-04-10T09:14:48Z</time>
      </trkpt>
      <trkpt lat="47.79277" lon="6.51336">
        <ele>401.5</ele>
        <time>2023-04-10T09:14:55Z</time>
      </trkpt>
      <trkpt lat="47.79284" lon="6.51345">
        <ele>402</ele>
        <time>2023-04-10T09:15:01Z</time>
      </trkpt>
      <trkpt lat="47.79293" lon="6.5135">
        <ele>402.5</ele>
        <time>2023-04-10T09:15:09Z</time>
      </trkpt>
      <trkpt lat="47.79303" lon="6.5135">
        <ele>402.9</ele>
        <time>2023-04-10T09:15:17Z</time>
      </trkpt>
      <trkpt lat="47.79311" lon="6.51356">
        <ele>403.2</ele>
        <time>2023-04-10T09:15:25Z</time>
      </trkpt>
      <trkpt lat="47.7932" lon="6.51362">
        <ele>403.4</ele>
        <time>2023-04-10T09:15:33Z</time>
      </trkpt>
      <trkpt lat="47.79329" lon="6.51365">
        <ele>403.6</ele>
        <time>2023-04-10T09:15:41Z</time>
      </trkpt>
      <trkpt lat="47.79337" lon="6.51371">
        <ele>403.6</ele>
        <time>2023-04-10T09:15:51Z</time>
      </trkpt>
      <trkpt lat="47.79345" lon="6.5138">
        <ele>403.5</ele>
        <time>2023-04-10T09:15:57Z</time>
      </trkpt>
      <trkpt lat="47.79352" lon="6.5139">
        <ele>403.3</ele>
        <time>2023-04-10T09:16:06Z</time>
      </trkpt>
      <trkpt lat="47.79359" lon="6.51403">
        <ele>403.4</ele>
        <time>2023-04-10T09:16:18Z</time>
      </trkpt>
      <trkpt lat="47.79366" lon="6.51412">
        <ele>403.6</ele>
        <time>2023-04-10T09:16:25Z</time>
      </trkpt>
      <trkpt lat="47.79372" lon="6.51424">
        <ele>403.6</ele>
        <time>2023-04-10T09:16:32Z</time>
      </trkpt>
      <trkpt lat="47.79379" lon="6.51433">
        <ele>403.5</ele>
        <time>2023-04-10T09:16:40Z</time>
      </trkpt>
      <trkpt lat="47.79384" lon="6.51445">
        <ele>403.3</ele>
        <time>2023-04-10T09:16:47Z</time>
      </trkpt>
      <trkpt lat="47.79391" lon="6.51456">
        <ele>403.3</ele>
        <time>2023-04-10T09:16:52Z</time>
      </trkpt>
      <trkpt lat="47.79396" lon="6.51469">
        <ele>403.3</ele>
        <time>2023-04-10T09:16:58Z</time>
      </trkpt>
      <trkpt lat="47.794" lon="6.51483">
        <ele>403.4</ele>
        <time>2023-04-10T09:17:06Z</time>
      </trkpt>
      <trkpt lat="47.79407" lon="6.51496">
        <ele>403.4</ele>
        <time>2023-04-10T09:17:12Z</time>
      </trkpt>
      <trkpt lat="47.79411" lon="6.51508">
        <ele>403.5</ele>
        <time>2023-04-10T09:17:17Z</time>
      </trkpt>
      <trkpt lat="47.79415" lon="6.51521">
        <ele>403.6</ele>
        <time>2023-04-10T09:17:22Z</time>
      </trkpt>
      <trkpt lat="47.79419" lon="6.51535">
        <ele>403.8</ele>
        <time>2023-04-10T09:17:28Z</time>
      </trkpt>
      <trkpt lat="47.79423" lon="6.51548">
        <ele>403.9</ele>
        <time>2023-04-10T09:17:34Z</time>
      </trkpt>
      <trkpt lat="47.79428" lon="6.51559">
        <ele>404</ele>
        <time>2023-04-10T09:17:41Z</time>
      </trkpt>
      <trkpt lat="47.79434" lon="6.51571">
        <ele>404.1</ele>
        <time>2023-04-10T09:17:49Z</time>
      </trkpt>
      <trkpt lat="47.79439" lon="6.51583">
        <ele>404.1</ele>
        <time>2023-04-10T09:17:57Z</time>
      </trkpt>
      <trkpt lat="47.79444" lon="6.51595">
        <ele>404.2</ele>
        <time>2023-04-10T09:18:05Z</time>
      </trkpt>
      <trkpt lat="47.7945" lon="6.51605">
        <ele>404.2</ele>
        <time>2023-04-10T09:18:11Z</time>
      </trkpt>
      <trkpt lat="47.79454" lon="6.51618">
        <ele>404.4</ele>
        <time>2023-04-10T09:18:18Z</time>
      </trkpt>
      <trkpt lat="47.79458" lon="6.5163">
        <ele>404.5</ele>
        <time>2023-04-10T09:18:25Z</time>
      </trkpt>
      <trkpt lat="47.79458" lon="6.51644">
        <ele>404.6</ele>
        <time>2023-04-10T09:18:34Z</time>
      </trkpt>
      <trkpt lat="47.7946" lon="6.51657">
        <ele>404.7</ele>
        <time>2023-04-10T09:18:44Z</time>
      </trkpt>
      <trkpt lat="47.79462" lon="6.51671">
        <ele>404.9</ele>
        <time>2023-04-10T09:18:52Z</time>
      </trkpt>
      <trkpt lat="47.79465" lon="6.51686">
        <ele>405</ele>
        <time>2023-04-10T09:18:58Z</time>
      </trkpt>
      <trkpt lat="47.7947" lon="6.51697">
        <ele>405.1</ele>
        <time>2023-04-10T09:19:04Z</time>
      </trkpt>
      <trkpt lat="47.79475" lon="6.5171">
        <ele>405.1</ele>
        <time>2023-04-10T09:19:12Z</time>
      </trkpt>
      <trkpt lat="47.79478" lon="6.51724">
        <ele>405.1</ele>
        <time>2023-04-10T09:19:20Z</time>
      </trkpt>
      <trkpt lat="47.79482" lon="6.51736">
        <ele>405.1</ele>
        <time>2023-04-10T09:19:29Z</time>
      </trkpt>
      <trkpt lat="47.79488" lon="6.51749">
        <ele>405</ele>
        <time>2023-04-10T09:19:38Z</time>
      </trkpt>
      <trkpt lat="47.79495" lon="6.51758">
        <ele>404.9</ele>
        <time>2023-04-10T09:19:45Z</time>
      </trkpt>
      <trkpt lat="47.79501" lon="6.51771">
        <ele>404.8</ele>
        <time>2023-04-10T09:19:53Z</time>
      </trkpt>
      <trkpt lat="47.79507" lon="6.51781">
        <ele>404.9</ele>
        <time>2023-04-10T09:20:01Z</time>
      </trkpt>
      <trkpt lat="47.79516" lon="6.51786">
        <ele>405.1</ele>
        <time>2023-04-10T09:20:09Z</time>
      </trkpt>
      <trkpt lat="47.79523" lon="6.51798">
        <ele>405.4</ele>
        <time>2023-04-10T09:20:17Z</time>
      </trkpt>
      <trkpt lat="47.79531" lon="6.51805">
        <ele>405.5</ele>
        <time>2023-04-10T09:20:24Z</time>
      </trkpt>
      <trkpt lat="47.79536" lon="6.51817">
        <ele>405.6</ele>
        <time>2023-04-10T09:20:32Z</time>
      </trkpt>
      <trkpt lat="47.79543" lon="6.51826">
        <ele>405.6</ele>
        <time>2023-04-10T09:20:41Z</time>
      </trkpt>
      <trkpt lat="47.79553" lon="6.51833">
        <ele>405.6</ele>
        <time>2023-04-10T09:20:50Z</time>
      </trkpt>
      <trkpt lat="47.79558" lon="6.51845">
        <ele>405.7</ele>
        <time>2023-04-10T09:20:57Z</time>
      </trkpt>
      <trkpt lat="47.79565" lon="6.51856">
        <ele>405.7</ele>
        <time>2023-04-10T09:21:03Z</time>
      </trkpt>
      <trkpt lat="47.79571" lon="6.51866">
        <ele>405.7</ele>
        <time>2023-04-10T09:21:09Z</time>
      </trkpt>
      <trkpt lat="47.79578" lon="6.51876">
        <ele>405.5</ele>
        <time>2023-04-10T09:21:15Z</time>
      </trkpt>
      <trkpt lat="47.79587" lon="6.51885">
        <ele>405.3</ele>
        <time>2023-04-10T09:21:22Z</time>
      </trkpt>
      <trkpt lat="47.79594" lon="6.51895">
        <ele>405.2</ele>
        <time>2023-04-10T09:21:29Z</time>
      </trkpt>
      <trkpt lat="47.79599" lon="6.51906">
        <ele>405.2</ele>
        <time>2023-04-10T09:21:36Z</time>
      </trkpt>
      <trkpt lat="47.79607" lon="6.51917">
        <ele>405.2</ele>
        <time>2023-04-10T09:21:45Z</time>
      </trkpt>
      <trkpt lat="47.7961" lon="6.5193">
        <ele>405.6</ele>
        <time>2023-04-10T09:21:53Z</time>
      </trkpt>
      <trkpt lat="47.79612" lon="6.51945">
        <ele>406.1</ele>
        <time>2023-04-10T09:22:01Z</time>
      </trkpt>
      <trkpt lat="47.79615" lon="6.51958">
        <ele>406.7</ele>
        <time>2023-04-10T09:22:07Z</time>
      </trkpt>
      <trkpt lat="47.7962" lon="6.51971">
        <ele>407.4</ele>
        <time>2023-04-10T09:22:12Z</time>
      </trkpt>
      <trkpt lat="47.79625" lon="6.51984">
        <ele>408.2</ele>
        <time>2023-04-10T09:22:18Z</time>
      </trkpt>
      <trkpt lat="47.79631" lon="6.51995">
        <ele>409</ele>
        <time>2023-04-10T09:22:23Z</time>
      </trkpt>
      <trkpt lat="47.79637" lon="6.52006">
        <ele>409.8</ele>
        <time>2023-04-10T09:22:29Z</time>
      </trkpt>
      <trkpt lat="47.79642" lon="6.52019">
        <ele>410.9</ele>
        <time>2023-04-10T09:22:37Z</time>
      </trkpt>
      <trkpt lat="47.79647" lon="6.52033">
        <ele>412</ele>
        <time>2023-04-10T09:22:44Z</time>
      </trkpt>
      <trkpt lat="47.7965" lon="6.52047">
        <ele>413.2</ele>
        <time>2023-04-10T09:22:53Z</time>
      </trkpt>
      <trkpt lat="47.79653" lon="6.52061">
        <ele>414.2</ele>
        <time>2023-04-10T09:23:04Z</time>
      </trkpt>
      <trkpt lat="47.79655" lon="6.52074">
        <ele>415.3</ele>
        <time>2023-04-10T09:23:13Z</time>
      </trkpt>
      <trkpt lat="47.79656" lon="6.52089">
        <ele>416.3</ele>
        <time>2023-04-10T09:23:21Z</time>
      </trkpt>
      <trkpt lat="47.79658" lon="6.52103">
        <ele>417.2</ele>
        <time>2023-04-10T09:23:28Z</time>
      </trkpt>
      <trkpt lat="47.7966" lon="6.52118">
        <ele>418</ele>
        <time>2023-04-10T09:23:35Z</time>
      </trkpt>
      <trkpt lat="47.79663" lon="6.52132">
        <ele>418.8</ele>
        <time>2023-04-10T09:23:43Z</time>
      </trkpt>
      <trkpt lat="47.79665" lon="6.52146">
        <ele>419.3</ele>
        <time>2023-04-10T09:23:52Z</time>
      </trkpt>
      <trkpt lat="47.79665" lon="6.52161">
        <ele>419.8</ele>
        <time>2023-04-10T09:24:00Z</time>
      </trkpt>
      <trkpt lat="47.79665" lon="6.52176">
        <ele>420.3</ele>
        <time>2023-04-10T09:24:06Z</time>
      </trkpt>
      <trkpt lat="47.79664" lon="6.52189">
        <ele>420.7</ele>
        <time>2023-04-10T09:24:12Z</time>
      </trkpt>
      <trkpt lat="47.79666" lon="6.52203">
        <ele>421</ele>
        <time>2023-04-10T09:24:21Z</time>
      </trkpt>
      <trkpt lat="47.79666" lon="6.52217">
        <ele>421.3</ele>
        <time>2023-04-10T09:24:29Z</time>
      </trkpt>
      <trkpt lat="47.79667" lon="6.52232">
        <ele>421.7</ele>
        <time>2023-04-10T09:24:37Z</time>
      </trkpt>
      <trkpt lat="47.79665" lon="6.52245">
        <ele>422</ele>
        <time>2023-04-10T09:24:45Z</time>
      </trkpt>
      <trkpt lat="47.79661" lon="6.52258">
        <ele>422.4</ele>
        <time>2023-04-10T09:24:48Z</time>
      </trkpt>
      <trkpt lat="47.7966" lon="6.52272">
        <ele>422.8</ele>
        <time>2023-04-10T09:24:52Z</time>
      </trkpt>
      <trkpt lat="47.79659" lon="6.52286">
        <ele>423.3</ele>
        <time>2023-04-10T09:24:58Z</time>
      </trkpt>
      <trkpt lat="47.79655" lon="6.52299">
        <ele>423.9</ele>
        <time>2023-04-10T09:25:06Z</time>
      </trkpt>
      <trkpt lat="47.79653" lon="6.52314">
        <ele>424.6</ele>
        <time>2023-04-10T09:25:13Z</time>
      </trkpt>
      <trkpt lat="47.79649" lon="6.52328">
        <ele>425.4</ele>
        <time>2023-04-10T09:25:19Z</time>
      </trkpt>
      <trkpt lat="47.79646" lon="6.52341">
        <ele>426.3</ele>
        <time>2023-04-10T09:25:25Z</time>
      </trkpt>
      <trkpt lat="47.79642" lon="6.52353">
        <ele>427.1</ele>
        <time>2023-04-10T09:25:31Z</time>
      </trkpt>
      <trkpt lat="47.79639" lon="6.52367">
        <ele>427.9</ele>
        <time>2023-04-10T09:25:38Z</time>
      </trkpt>
      <trkpt lat="47.79636" lon="6.5238">
        <ele>428.7</ele>
        <time>2023-04-10T09:25:45Z</time>
      </trkpt>
      <trkpt lat="47.79632" lon="6.52392">
        <ele>429.5</ele>
        <time>2023-04-10T09:25:52Z</time>
      </trkpt>
      <trkpt lat="47.79628" lon="6.52404">
        <ele>430.4</ele>
        <time>2023-04-10T09:25:59Z</time>
      </trkpt>
      <trkpt lat="47.79627" lon="6.52418">
        <ele>431.2</ele>
        <time>2023-04-10T09:26:06Z</time>
      </trkpt>
      <trkpt lat="47.7963" lon="6.52432">
        <ele>431.5</ele>
        <time>2023-04-10T09:26:13Z</time>
      </trkpt>
      <trkpt lat="47.79632" lon="6.52448">
        <ele>431.3</ele>
        <time>2023-04-10T09:26:21Z</time>
      </trkpt>
      <trkpt lat="47.79635" lon="6.52462">
        <ele>431.2</ele>
        <time>2023-04-10T09:26:28Z</time>
      </trkpt>
      <trkpt lat="47.79637" lon="6.52477">
        <ele>431.2</ele>
        <time>2023-04-10T09:26:36Z</time>
      </trkpt>
      <trkpt lat="47.79639" lon="6.52491">
        <ele>431.2</ele>
        <time>2023-04-10T09:26:43Z</time>
      </trkpt>
      <trkpt lat="47.79639" lon="6.52505">
        <ele>431.2</ele>
        <time>2023-04-10T09:26:50Z</time>
      </trkpt>
      <trkpt lat="47.79638" lon="6.5252">
        <ele>431.4</ele>
        <time>2023-04-10T09:26:57Z</time>
      </trkpt>
      <trkpt lat="47.79635" lon="6.52533">
        <ele>431.6</ele>
        <time>2023-04-10T09:27:06Z</time>
      </trkpt>
      <trkpt lat="47.79632" lon="6.52546">
        <ele>431.7</ele>
        <time>2023-04-10T09:27:15Z</time>
      </trkpt>
      <trkpt lat="47.79631" lon="6.52561">
        <ele>431.9</ele>
        <time>2023-04-10T09:27:23Z</time>
      </trkpt>
      <trkpt lat="47.79635" lon="6.52575">
        <ele>431.8</ele>
        <time>2023-04-10T09:27:31Z</time>
      </trkpt>
      <trkpt lat="47.7964" lon="6.52589">
        <ele>431.5</ele>
        <time>2023-04-10T09:27:37Z</time>
      </trkpt>
      <trkpt lat="47.79645" lon="6.52601">
        <ele>431.2</ele>
        <time>2023-04-10T09:27:45Z</time>
      </trkpt>
      <trkpt lat="47.79648" lon="6.52615">
        <ele>430.9</ele>
        <time>2023-04-10T09:27:55Z</time>
      </trkpt>
      <trkpt lat="47.79654" lon="6.52626">
        <ele>430.6</ele>
        <time>2023-04-10T09:28:02Z</time>
      </trkpt>
      <trkpt lat="47.79656" lon="6.5264">
        <ele>430.5</ele>
        <time>2023-04-10T09:28:10Z</time>
      </trkpt>
      <trkpt lat="47.79659" lon="6.52653">
        <ele>430.2</ele>
        <time>2023-04-10T09:28:18Z</time>
      </trkpt>
      <trkpt lat="47.79663" lon="6.52668">
        <ele>429.5</ele>
        <time>2023-04-10T09:28:29Z</time>
      </trkpt>
      <trkpt lat="47.79666" lon="6.52681">
        <ele>428.8</ele>
        <time>2023-04-10T09:28:36Z</time>
      </trkpt>
      <trkpt lat="47.79671" lon="6.52694">
        <ele>428.1</ele>
        <time>2023-04-10T09:28:43Z</time>
      </trkpt>
      <trkpt lat="47.79675" lon="6.52707">
        <ele>427.2</ele>
        <time>2023-04-10T09:28:49Z</time>
      </trkpt>
      <trkpt lat="47.79679" lon="6.52719">
        <ele>426.5</ele>
        <time>2023-04-10T09:28:55Z</time>
      </trkpt>
      <trkpt lat="47.79679" lon="6.52733">
        <ele>425.7</ele>
        <time>2023-04-10T09:29:02Z</time>
      </trkpt>
      <trkpt lat="47.7968" lon="6.52749">
        <ele>425.1</ele>
        <time>2023-04-10T09:29:09Z</time>
      </trkpt>
      <trkpt lat="47.79681" lon="6.52764">
        <ele>424.8</ele>
        <time>2023-04-10T09:29:14Z</time>
      </trkpt>
      <trkpt lat="47.79683" lon="6.52777">
        <ele>424.7</ele>
        <time>2023-04-10T09:29:22Z</time>
      </trkpt>
      <trkpt lat="47.79685" lon="6.52791">
        <ele>424.8</ele>
        <time>2023-04-10T09:29:29Z</time>
      </trkpt>
      <trkpt lat="47.79688" lon="6.52806">
        <ele>425.1</ele>
        <time>2023-04-10T09:29:36Z</time>
      </trkpt>
      <trkpt lat="47.79687" lon="6.5282">
        <ele>425.3</ele>
        <time>2023-04-10T09:29:43Z</time>
      </trkpt>
      <trkpt lat="47.79686" lon="6.52834">
        <ele>425.5</ele>
        <time>2023-04-10T09:29:50Z</time>
      </trkpt>
      <trkpt lat="47.79687" lon="6.52849">
        <ele>425.7</ele>
        <time>2023-04-10T09:29:57Z</time>
      </trkpt>
      <trkpt lat="47.7969" lon="6.52864">
        <ele>425.8</ele>
        <time>2023-04-10T09:30:04Z</time>
      </trkpt>
      <trkpt lat="47.79694" lon="6.52878">
        <ele>425.9</ele>
        <time>2023-04-10T09:30:11Z</time>
      </trkpt>
      <trkpt lat="47.79702" lon="6.52887">
        <ele>426.2</ele>
        <time>2023-04-10T09:30:18Z</time>
      </trkpt>
      <trkpt lat="47.79707" lon="6.52899">
        <ele>426.5</ele>
        <time>2023-04-10T09:30:30Z</time>
      </trkpt>
      <trkpt lat="47.79707" lon="6.52899">
        <ele>426.5</ele>
        <time>2023-04-10T09:30:31Z</time>
      </trkpt>
      <trkpt lat="47.79707" lon="6.529">
        <ele>426.5</ele>
        <time>2023-04-10T09:30:35Z</time>
      </trkpt>
      <trkpt lat="47.79707" lon="6.52902">
        <ele>426.6</ele>
        <time>2023-04-10T09:30:37Z</time>
      </trkpt>
      <trkpt lat="47.79707" lon="6.52902">
        <ele>426.6</ele>
        <time>2023-04-10T09:30:43Z</time>
      </trkpt>
      <trkpt lat="47.79715" lon="6.52905">
        <ele>427.1</ele>
        <time>2023-04-10T09:30:54Z</time>
      </trkpt>
      <trkpt lat="47.79724" lon="6.52908">
        <ele>427.7</ele>
        <time>2023-04-10T09:31:03Z</time>
      </trkpt>
      <trkpt lat="47.79733" lon="6.52911">
        <ele>428.2</ele>
        <time>2023-04-10T09:31:10Z</time>
      </trkpt>
      <trkpt lat="47.79744" lon="6.5291">
        <ele>428.7</ele>
        <time>2023-04-10T09:31:20Z</time>
      </trkpt>
      <trkpt lat="47.79753" lon="6.52911">
        <ele>429</ele>
        <time>2023-04-10T09:31:27Z</time>
      </trkpt>
      <trkpt lat="47.79764" lon="6.52911">
        <ele>429.4</ele>
        <time>2023-04-10T09:31:34Z</time>
      </trkpt>
      <trkpt lat="47.79774" lon="6.52912">
        <ele>429.7</ele>
        <time>2023-04-10T09:31:40Z</time>
      </trkpt>
      <trkpt lat="47.79784" lon="6.52915">
        <ele>430.3</ele>
        <time>2023-04-10T09:31:51Z</time>
      </trkpt>
      <trkpt lat="47.79793" lon="6.52917">
        <ele>431</ele>
        <time>2023-04-10T09:31:57Z</time>
      </trkpt>
      <trkpt lat="47.79802" lon="6.52919">
        <ele>431.9</ele>
        <time>2023-04-10T09:32:05Z</time>
      </trkpt>
      <trkpt lat="47.79812" lon="6.5292">
        <ele>432.8</ele>
        <time>2023-04-10T09:32:13Z</time>
      </trkpt>
      <trkpt lat="47.79821" lon="6.52917">
        <ele>434</ele>
        <time>2023-04-10T09:32:19Z</time>
      </trkpt>
      <trkpt lat="47.79831" lon="6.52912">
        <ele>435.3</ele>
        <time>2023-04-10T09:32:25Z</time>
      </trkpt>
      <trkpt lat="47.79841" lon="6.52907">
        <ele>436.7</ele>
        <time>2023-04-10T09:32:33Z</time>
      </trkpt>
      <trkpt lat="47.7985" lon="6.52901">
        <ele>438.2</ele>
        <time>2023-04-10T09:32:42Z</time>
      </trkpt>
      <trkpt lat="47.79858" lon="6.52894">
        <ele>439.6</ele>
        <time>2023-04-10T09:32:50Z</time>
      </trkpt>
      <trkpt lat="47.79868" lon="6.52889">
        <ele>441.1</ele>
        <time>2023-04-10T09:33:03Z</time>
      </trkpt>
      <trkpt lat="47.79877" lon="6.52884">
        <ele>442.2</ele>
        <time>2023-04-10T09:33:10Z</time>
      </trkpt>
      <trkpt lat="47.79884" lon="6.52875">
        <ele>443.3</ele>
        <time>2023-04-10T09:33:19Z</time>
      </trkpt>
      <trkpt lat="47.79892" lon="6.52867">
        <ele>444.5</ele>
        <time>2023-04-10T09:33:29Z</time>
      </trkpt>
      <trkpt lat="47.79902" lon="6.52863">
        <ele>445.7</ele>
        <time>2023-04-10T09:33:36Z</time>
      </trkpt>
      <trkpt lat="47.79911" lon="6.52861">
        <ele>446.8</ele>
        <time>2023-04-10T09:33:42Z</time>
      </trkpt>
      <trkpt lat="47.79919" lon="6.52868">
        <ele>447.8</ele>
        <time>2023-04-10T09:33:49Z</time>
      </trkpt>
      <trkpt lat="47.79924" lon="6.5288">
        <ele>448.8</ele>
        <time>2023-04-10T09:33:56Z</time>
      </trkpt>
      <trkpt lat="47.79929" lon="6.52892">
        <ele>449.9</ele>
        <time>2023-04-10T09:34:03Z</time>
      </trkpt>
      <trkpt lat="47.79929" lon="6.52906">
        <ele>450.8</ele>
        <time>2023-04-10T09:34:14Z</time>
      </trkpt>
      <trkpt lat="47.7993" lon="6.5292">
        <ele>451.6</ele>
        <time>2023-04-10T09:34:24Z</time>
      </trkpt>
      <trkpt lat="47.79932" lon="6.52933">
        <ele>452.3</ele>
        <time>2023-04-10T09:34:30Z</time>
      </trkpt>
      <trkpt lat="47.79936" lon="6.52945">
        <ele>452.9</ele>
        <time>2023-04-10T09:34:35Z</time>
      </trkpt>
      <trkpt lat="47.79941" lon="6.52957">
        <ele>453.5</ele>
        <time>2023-04-10T09:34:41Z</time>
      </trkpt>
      <trkpt lat="47.79947" lon="6.52969">
        <ele>454.3</ele>
        <time>2023-04-10T09:34:48Z</time>
      </trkpt>
      <trkpt lat="47.79956" lon="6.52976">
        <ele>455.1</ele>
        <time>2023-04-10T09:34:56Z</time>
      </trkpt>
      <trkpt lat="47.79965" lon="6.52983">
        <ele>456.1</ele>
        <time>2023-04-10T09:35:02Z</time>
      </trkpt>
      <trkpt lat="47.79974" lon="6.52988">
        <ele>457.2</ele>
        <time>2023-04-10T09:35:10Z</time>
      </trkpt>
      <trkpt lat="47.79983" lon="6.52993">
        <ele>459</ele>
        <time>2023-04-10T09:35:18Z</time>
      </trkpt>
      <trkpt lat="47.79988" lon="6.53007">
        <ele>459.8</ele>
        <time>2023-04-10T09:35:27Z</time>
      </trkpt>
      <trkpt lat="47.79989" lon="6.5302">
        <ele>460.5</ele>
        <time>2023-04-10T09:35:34Z</time>
      </trkpt>
      <trkpt lat="47.79987" lon="6.53035">
        <ele>461.1</ele>
        <time>2023-04-10T09:35:42Z</time>
      </trkpt>
      <trkpt lat="47.79985" lon="6.53049">
        <ele>461.6</ele>
        <time>2023-04-10T09:35:48Z</time>
      </trkpt>
      <trkpt lat="47.79982" lon="6.53063">
        <ele>462</ele>
        <time>2023-04-10T09:35:55Z</time>
      </trkpt>
      <trkpt lat="47.79978" lon="6.53076">
        <ele>462.2</ele>
        <time>2023-04-10T09:36:03Z</time>
      </trkpt>
      <trkpt lat="47.79974" lon="6.53089">
        <ele>462.3</ele>
        <time>2023-04-10T09:36:11Z</time>
      </trkpt>
      <trkpt lat="47.79971" lon="6.53103">
        <ele>462.2</ele>
        <time>2023-04-10T09:36:19Z</time>
      </trkpt>
      <trkpt lat="47.79968" lon="6.53117">
        <ele>462.1</ele>
        <time>2023-04-10T09:36:27Z</time>
      </trkpt>
      <trkpt lat="47.79965" lon="6.53131">
        <ele>461.9</ele>
        <time>2023-04-10T09:36:35Z</time>
      </trkpt>
      <trkpt lat="47.79964" lon="6.53144">
        <ele>461.9</ele>
        <time>2023-04-10T09:36:42Z</time>
      </trkpt>
      <trkpt lat="47.79963" lon="6.53159">
        <ele>462</ele>
        <time>2023-04-10T09:36:49Z</time>
      </trkpt>
      <trkpt lat="47.79961" lon="6.53172">
        <ele>462.1</ele>
        <time>2023-04-10T09:36:56Z</time>
      </trkpt>
      <trkpt lat="47.79959" lon="6.53187">
        <ele>462.1</ele>
        <time>2023-04-10T09:37:05Z</time>
      </trkpt>
      <trkpt lat="47.79957" lon="6.53202">
        <ele>462.1</ele>
        <time>2023-04-10T09:37:12Z</time>
      </trkpt>
      <trkpt lat="47.79955" lon="6.53215">
        <ele>462</ele>
        <time>2023-04-10T09:37:19Z</time>
      </trkpt>
      <trkpt lat="47.79954" lon="6.53228">
        <ele>461.9</ele>
        <time>2023-04-10T09:37:26Z</time>
      </trkpt>
      <trkpt lat="47.79954" lon="6.53244">
        <ele>461.9</ele>
        <time>2023-04-10T09:37:33Z</time>
      </trkpt>
      <trkpt lat="47.79954" lon="6.53257">
        <ele>461.8</ele>
        <time>2023-04-10T09:37:39Z</time>
      </trkpt>
      <trkpt lat="47.79953" lon="6.53271">
        <ele>461.8</ele>
        <time>2023-04-10T09:37:46Z</time>
      </trkpt>
      <trkpt lat="47.79952" lon="6.53286">
        <ele>461.8</ele>
        <time>2023-04-10T09:37:54Z</time>
      </trkpt>
      <trkpt lat="47.79951" lon="6.533">
        <ele>461.8</ele>
        <time>2023-04-10T09:38:01Z</time>
      </trkpt>
      <trkpt lat="47.7995" lon="6.53314">
        <ele>461.8</ele>
        <time>2023-04-10T09:38:10Z</time>
      </trkpt>
      <trkpt lat="47.79948" lon="6.53327">
        <ele>461.7</ele>
        <time>2023-04-10T09:38:19Z</time>
      </trkpt>
      <trkpt lat="47.79948" lon="6.53342">
        <ele>461.6</ele>
        <time>2023-04-10T09:38:27Z</time>
      </trkpt>
      <trkpt lat="47.79949" lon="6.53356">
        <ele>461.6</ele>
        <time>2023-04-10T09:38:37Z</time>
      </trkpt>
      <trkpt lat="47.7995" lon="6.5337">
        <ele>461.6</ele>
        <time>2023-04-10T09:38:46Z</time>
      </trkpt>
      <trkpt lat="47.79947" lon="6.53384">
        <ele>461.6</ele>
        <time>2023-04-10T09:38:55Z</time>
      </trkpt>
      <trkpt lat="47.79948" lon="6.53399">
        <ele>461.5</ele>
        <time>2023-04-10T09:39:02Z</time>
      </trkpt>
      <trkpt lat="47.7995" lon="6.53413">
        <ele>461.5</ele>
        <time>2023-04-10T09:39:10Z</time>
      </trkpt>
      <trkpt lat="47.79952" lon="6.53428">
        <ele>461.6</ele>
        <time>2023-04-10T09:39:18Z</time>
      </trkpt>
      <trkpt lat="47.79954" lon="6.53442">
        <ele>461.6</ele>
        <time>2023-04-10T09:39:26Z</time>
      </trkpt>
      <trkpt lat="47.79955" lon="6.53457">
        <ele>461.6</ele>
        <time>2023-04-10T09:39:35Z</time>
      </trkpt>
      <trkpt lat="47.79954" lon="6.53471">
        <ele>461.5</ele>
        <time>2023-04-10T09:39:43Z</time>
      </trkpt>
      <trkpt lat="47.79958" lon="6.53485">
        <ele>461.4</ele>
        <time>2023-04-10T09:39:52Z</time>
      </trkpt>
      <trkpt lat="47.79959" lon="6.53498">
        <ele>461.3</ele>
        <time>2023-04-10T09:39:59Z</time>
      </trkpt>
      <trkpt lat="47.79962" lon="6.53514">
        <ele>461.2</ele>
        <time>2023-04-10T09:40:06Z</time>
      </trkpt>
      <trkpt lat="47.79966" lon="6.53527">
        <ele>461.2</ele>
        <time>2023-04-10T09:40:14Z</time>
      </trkpt>
      <trkpt lat="47.7997" lon="6.5354">
        <ele>461.2</ele>
        <time>2023-04-10T09:40:22Z</time>
      </trkpt>
      <trkpt lat="47.7997" lon="6.5354">
        <ele>461.2</ele>
        <time>2023-04-10T09:40:24Z</time>
      </trkpt>
      <trkpt lat="47.7997" lon="6.5354">
        <ele>461.2</ele>
        <time>2023-04-10T09:40:25Z</time>
      </trkpt>
      <trkpt lat="47.79976" lon="6.53552">
        <ele>461.2</ele>
        <time>2023-04-10T09:40:34Z</time>
      </trkpt>
      <trkpt lat="47.79982" lon="6.53563">
        <ele>461.3</ele>
        <time>2023-04-10T09:40:40Z</time>
      </trkpt>
      <trkpt lat="47.79987" lon="6.53574">
        <ele>461.6</ele>
        <time>2023-04-10T09:40:46Z</time>
      </trkpt>
      <trkpt lat="47.79993" lon="6.53584">
        <ele>462</ele>
        <time>2023-04-10T09:40:53Z</time>
      </trkpt>
      <trkpt lat="47.79998" lon="6.53596">
        <ele>462.5</ele>
        <time>2023-04-10T09:40:59Z</time>
      </trkpt>
      <trkpt lat="47.80003" lon="6.53608">
        <ele>463.1</ele>
        <time>2023-04-10T09:41:04Z</time>
      </trkpt>
      <trkpt lat="47.80008" lon="6.53621">
        <ele>463.9</ele>
        <time>2023-04-10T09:41:10Z</time>
      </trkpt>
      <trkpt lat="47.80013" lon="6.53632">
        <ele>464.5</ele>
        <time>2023-04-10T09:41:16Z</time>
      </trkpt>
      <trkpt lat="47.80018" lon="6.53645">
        <ele>465.2</ele>
        <time>2023-04-10T09:41:23Z</time>
      </trkpt>
      <trkpt lat="47.80019" lon="6.53659">
        <ele>465.8</ele>
        <time>2023-04-10T09:41:29Z</time>
      </trkpt>
      <trkpt lat="47.8002" lon="6.53673">
        <ele>466.4</ele>
        <time>2023-04-10T09:41:35Z</time>
      </trkpt>
      <trkpt lat="47.80021" lon="6.53687">
        <ele>467</ele>
        <time>2023-04-10T09:41:43Z</time>
      </trkpt>
      <trkpt lat="47.80023" lon="6.53701">
        <ele>467.3</ele>
        <time>2023-04-10T09:41:49Z</time>
      </trkpt>
      <trkpt lat="47.80027" lon="6.53713">
        <ele>467.2</ele>
        <time>2023-04-10T09:41:56Z</time>
      </trkpt>
      <trkpt lat="47.80033" lon="6.53725">
        <ele>466.7</ele>
        <time>2023-04-10T09:42:06Z</time>
      </trkpt>
      <trkpt lat="47.80037" lon="6.53739">
        <ele>466.1</ele>
        <time>2023-04-10T09:42:16Z</time>
      </trkpt>
      <trkpt lat="47.80041" lon="6.53751">
        <ele>465.6</ele>
        <time>2023-04-10T09:42:21Z</time>
      </trkpt>
      <trkpt lat="47.80046" lon="6.53765">
        <ele>465.3</ele>
        <time>2023-04-10T09:42:28Z</time>
      </trkpt>
      <trkpt lat="47.80054" lon="6.53772">
        <ele>465.3</ele>
        <time>2023-04-10T09:42:34Z</time>
      </trkpt>
      <trkpt lat="47.80062" lon="6.53782">
        <ele>465.5</ele>
        <time>2023-04-10T09:42:41Z</time>
      </trkpt>
      <trkpt lat="47.80069" lon="6.53791">
        <ele>465.7</ele>
        <time>2023-04-10T09:42:48Z</time>
      </trkpt>
      <trkpt lat="47.80076" lon="6.53801">
        <ele>466</ele>
        <time>2023-04-10T09:42:55Z</time>
      </trkpt>
      <trkpt lat="47.80082" lon="6.53812">
        <ele>466.3</ele>
        <time>2023-04-10T09:43:02Z</time>
      </trkpt>
      <trkpt lat="47.80089" lon="6.53823">
        <ele>466.7</ele>
        <time>2023-04-10T09:43:11Z</time>
      </trkpt>
      <trkpt lat="47.80094" lon="6.53834">
        <ele>467.3</ele>
        <time>2023-04-10T09:43:20Z</time>
      </trkpt>
      <trkpt lat="47.80094" lon="6.53833">
        <ele>467.3</ele>
        <time>2023-04-10T09:43:22Z</time>
      </trkpt>
      <trkpt lat="47.80094" lon="6.53834">
        <ele>467.3</ele>
        <time>2023-04-10T09:43:23Z</time>
      </trkpt>
      <trkpt lat="47.80098" lon="6.53846">
        <ele>467.9</ele>
        <time>2023-04-10T09:43:31Z</time>
      </trkpt>
      <trkpt lat="47.801" lon="6.5386">
        <ele>468.3</ele>
        <time>2023-04-10T09:43:38Z</time>
      </trkpt>
      <trkpt lat="47.80106" lon="6.53871">
        <ele>468.7</ele>
        <time>2023-04-10T09:43:46Z</time>
      </trkpt>
      <trkpt lat="47.8011" lon="6.53884">
        <ele>469</ele>
        <time>2023-04-10T09:43:52Z</time>
      </trkpt>
      <trkpt lat="47.80114" lon="6.53897">
        <ele>469.2</ele>
        <time>2023-04-10T09:43:59Z</time>
      </trkpt>
      <trkpt lat="47.80116" lon="6.5391">
        <ele>469.4</ele>
        <time>2023-04-10T09:44:06Z</time>
      </trkpt>
      <trkpt lat="47.80118" lon="6.53924">
        <ele>469.6</ele>
        <time>2023-04-10T09:44:13Z</time>
      </trkpt>
      <trkpt lat="47.80122" lon="6.53938">
        <ele>470</ele>
        <time>2023-04-10T09:44:20Z</time>
      </trkpt>
      <trkpt lat="47.80125" lon="6.53952">
        <ele>470.3</ele>
        <time>2023-04-10T09:44:26Z</time>
      </trkpt>
      <trkpt lat="47.80129" lon="6.53966">
        <ele>470.8</ele>
        <time>2023-04-10T09:44:33Z</time>
      </trkpt>
      <trkpt lat="47.80133" lon="6.53979">
        <ele>471.4</ele>
        <time>2023-04-10T09:44:40Z</time>
      </trkpt>
      <trkpt lat="47.80136" lon="6.53992">
        <ele>472</ele>
        <time>2023-04-10T09:44:47Z</time>
      </trkpt>
      <trkpt lat="47.80138" lon="6.54005">
        <ele>472.6</ele>
        <time>2023-04-10T09:44:55Z</time>
      </trkpt>
      <trkpt lat="47.80132" lon="6.54016">
        <ele>471.8</ele>
        <time>2023-04-10T09:45:03Z</time>
      </trkpt>
      <trkpt lat="47.80124" lon="6.54025">
        <ele>471.1</ele>
        <time>2023-04-10T09:45:10Z</time>
      </trkpt>
      <trkpt lat="47.80117" lon="6.54032">
        <ele>470.5</ele>
        <time>2023-04-10T09:45:18Z</time>
      </trkpt>
      <trkpt lat="47.80109" lon="6.54041">
        <ele>469.9</ele>
        <time>2023-04-10T09:45:27Z</time>
      </trkpt>
      <trkpt lat="47.80102" lon="6.5405">
        <ele>469.4</ele>
        <time>2023-04-10T09:45:35Z</time>
      </trkpt>
      <trkpt lat="47.80095" lon="6.54059">
        <ele>469.1</ele>
        <time>2023-04-10T09:45:43Z</time>
      </trkpt>
      <trkpt lat="47.80088" lon="6.54068">
        <ele>468.8</ele>
        <time>2023-04-10T09:45:52Z</time>
      </trkpt>
      <trkpt lat="47.8008" lon="6.54076">
        <ele>468.5</ele>
        <time>2023-04-10T09:46:00Z</time>
      </trkpt>
      <trkpt lat="47.80073" lon="6.54085">
        <ele>468.3</ele>
        <time>2023-04-10T09:46:07Z</time>
      </trkpt>
      <trkpt lat="47.80066" lon="6.54094">
        <ele>468.1</ele>
        <time>2023-04-10T09:46:15Z</time>
      </trkpt>
      <trkpt lat="47.80058" lon="6.54104">
        <ele>467.9</ele>
        <time>2023-04-10T09:46:23Z</time>
      </trkpt>
      <trkpt lat="47.8005" lon="6.54111">
        <ele>467.7</ele>
        <time>2023-04-10T09:46:31Z</time>
      </trkpt>
      <trkpt lat="47.80041" lon="6.54115">
        <ele>467.6</ele>
        <time>2023-04-10T09:46:40Z</time>
      </trkpt>
      <trkpt lat="47.80033" lon="6.5412">
        <ele>467.5</ele>
        <time>2023-04-10T09:46:48Z</time>
      </trkpt>
      <trkpt lat="47.80025" lon="6.54129">
        <ele>467.5</ele>
        <time>2023-04-10T09:46:58Z</time>
      </trkpt>
      <trkpt lat="47.80019" lon="6.54139">
        <ele>467.5</ele>
        <time>2023-04-10T09:47:09Z</time>
      </trkpt>
      <trkpt lat="47.80011" lon="6.54148">
        <ele>467.5</ele>
        <time>2023-04-10T09:47:16Z</time>
      </trkpt>
      <trkpt lat="47.80002" lon="6.54152">
        <ele>467.6</ele>
        <time>2023-04-10T09:47:23Z</time>
      </trkpt>
      <trkpt lat="47.79993" lon="6.54158">
        <ele>467.7</ele>
        <time>2023-04-10T09:47:31Z</time>
      </trkpt>
      <trkpt lat="47.79988" lon="6.54169">
        <ele>467.9</ele>
        <time>2023-04-10T09:47:41Z</time>
      </trkpt>
      <trkpt lat="47.79982" lon="6.5418">
        <ele>468.1</ele>
        <time>2023-04-10T09:47:51Z</time>
      </trkpt>
      <trkpt lat="47.79977" lon="6.54194">
        <ele>468.3</ele>
        <time>2023-04-10T09:47:58Z</time>
      </trkpt>
      <trkpt lat="47.79972" lon="6.54206">
        <ele>468.5</ele>
        <time>2023-04-10T09:48:05Z</time>
      </trkpt>
      <trkpt lat="47.79971" lon="6.54209">
        <ele>468.5</ele>
        <time>2023-04-10T09:48:10Z</time>
      </trkpt>
      <trkpt lat="47.79971" lon="6.54209">
        <ele>468.6</ele>
        <time>2023-04-10T09:48:18Z</time>
      </trkpt>
      <trkpt lat="47.79971" lon="6.54209">
        <ele>468.6</ele>
        <time>2023-04-10T09:48:19Z</time>
      </trkpt>
      <trkpt lat="47.79971" lon="6.5421">
        <ele>468.6</ele>
        <time>2023-04-10T09:48:20Z</time>
      </trkpt>
      <trkpt lat="47.79966" lon="6.54222">
        <ele>468.8</ele>
        <time>2023-04-10T09:48:30Z</time>
      </trkpt>
      <trkpt lat="47.79962" lon="6.54234">
        <ele>468.9</ele>
        <time>2023-04-10T09:48:39Z</time>
      </trkpt>
      <trkpt lat="47.7996" lon="6.54247">
        <ele>469.1</ele>
        <time>2023-04-10T09:48:45Z</time>
      </trkpt>
      <trkpt lat="47.79953" lon="6.54255">
        <ele>469.3</ele>
        <time>2023-04-10T09:49:03Z</time>
      </trkpt>
      <trkpt lat="47.7995" lon="6.54268">
        <ele>469.5</ele>
        <time>2023-04-10T09:49:15Z</time>
      </trkpt>
      <trkpt lat="47.79948" lon="6.54275">
        <ele>469.6</ele>
        <time>2023-04-10T09:49:38Z</time>
      </trkpt>
      <trkpt lat="47.79948" lon="6.54274">
        <ele>469.6</ele>
        <time>2023-04-10T09:49:39Z</time>
      </trkpt>
      <trkpt lat="47.79948" lon="6.54274">
        <ele>469.6</ele>
        <time>2023-04-10T09:49:43Z</time>
      </trkpt>
      <trkpt lat="47.79948" lon="6.54274">
        <ele>469.6</ele>
        <time>2023-04-10T09:49:44Z</time>
      </trkpt>
      <trkpt lat="47.79948" lon="6.54274">
        <ele>469.6</ele>
        <time>2023-04-10T09:49:45Z</time>
      </trkpt>
      <trkpt lat="47.79948" lon="6.54274">
        <ele>469.6</ele>
        <time>2023-04-10T09:49:50Z</time>
      </trkpt>
      <trkpt lat="47.79952" lon="6.54276">
        <ele>469.7</ele>
        <time>2023-04-10T09:49:59Z</time>
      </trkpt>
      <trkpt lat="47.79952" lon="6.54276">
        <ele>469.7</ele>
        <time>2023-04-10T09:50:04Z</time>
      </trkpt>
      <trkpt lat="47.79952" lon="6.54273">
        <ele>469.8</ele>
        <time>2023-04-10T09:50:10Z</time>
      </trkpt>
      <trkpt lat="47.79953" lon="6.54273">
        <ele>469.8</ele>
        <time>2023-04-10T09:50:14Z</time>
      </trkpt>
      <trkpt lat="47.79955" lon="6.54272">
        <ele>469.8</ele>
        <time>2023-04-10T09:50:24Z</time>
      </trkpt>
      <trkpt lat="47.79955" lon="6.54272">
        <ele>469.8</ele>
        <time>2023-04-10T09:50:29Z</time>
      </trkpt>
      <trkpt lat="47.79955" lon="6.54271">
        <ele>469.8</ele>
        <time>2023-04-10T09:50:38Z</time>
      </trkpt>
      <trkpt lat="47.79955" lon="6.54271">
        <ele>469.8</ele>
        <time>2023-04-10T09:50:39Z</time>
      </trkpt>
      <trkpt lat="47.79955" lon="6.54271">
        <ele>469.9</ele>
        <time>2023-04-10T09:50:40Z</time>
      </trkpt>
      <trkpt lat="47.79954" lon="6.54271">
        <ele>469.9</ele>
        <time>2023-04-10T09:50:41Z</time>
      </trkpt>
      <trkpt lat="47.79955" lon="6.5427">
        <ele>469.9</ele>
        <time>2023-04-10T09:50:46Z</time>
      </trkpt>
      <trkpt lat="47.79955" lon="6.54271">
        <ele>469.9</ele>
        <time>2023-04-10T09:50:59Z</time>
      </trkpt>
      <trkpt lat="47.79956" lon="6.54271">
        <ele>469.9</ele>
        <time>2023-04-10T09:51:03Z</time>
      </trkpt>
      <trkpt lat="47.79956" lon="6.54271">
        <ele>469.9</ele>
        <time>2023-04-10T09:51:04Z</time>
      </trkpt>
      <trkpt lat="47.79957" lon="6.54271">
        <ele>469.9</ele>
        <time>2023-04-10T09:51:06Z</time>
      </trkpt>
      <trkpt lat="47.79957" lon="6.54271">
        <ele>469.9</ele>
        <time>2023-04-10T09:51:08Z</time>
      </trkpt>
      <trkpt lat="47.79957" lon="6.54271">
        <ele>469.9</ele>
        <time>2023-04-10T09:51:10Z</time>
      </trkpt>
      <trkpt lat="47.79957" lon="6.54271">
        <ele>469.9</ele>
        <time>2023-04-10T09:51:11Z</time>
      </trkpt>
      <trkpt lat="47.79955" lon="6.54271">
        <ele>470</ele>
        <time>2023-04-10T09:51:38Z</time>
      </trkpt>
      <trkpt lat="47.79955" lon="6.54271">
        <ele>470</ele>
        <time>2023-04-10T09:51:45Z</time>
      </trkpt>
      <trkpt lat="47.79945" lon="6.54267">
        <ele>470.3</ele>
        <time>2023-04-10T09:51:58Z</time>
      </trkpt>
      <trkpt lat="47.79937" lon="6.54261">
        <ele>470.3</ele>
        <time>2023-04-10T09:52:06Z</time>
      </trkpt>
      <trkpt lat="47.79929" lon="6.54255">
        <ele>470.1</ele>
        <time>2023-04-10T09:52:15Z</time>
      </trkpt>
      <trkpt lat="47.79918" lon="6.54257">
        <ele>470.1</ele>
        <time>2023-04-10T09:52:21Z</time>
      </trkpt>
      <trkpt lat="47.7991" lon="6.54261">
        <ele>470.1</ele>
        <time>2023-04-10T09:52:28Z</time>
      </trkpt>
      <trkpt lat="47.79901" lon="6.54268">
        <ele>470.1</ele>
        <time>2023-04-10T09:52:34Z</time>
      </trkpt>
      <trkpt lat="47.79892" lon="6.54276">
        <ele>469.8</ele>
        <time>2023-04-10T09:52:41Z</time>
      </trkpt>
      <trkpt lat="47.79882" lon="6.54278">
        <ele>469.4</ele>
        <time>2023-04-10T09:52:51Z</time>
      </trkpt>
      <trkpt lat="47.79873" lon="6.5428">
        <ele>469</ele>
        <time>2023-04-10T09:52:58Z</time>
      </trkpt>
      <trkpt lat="47.79864" lon="6.54282">
        <ele>468.6</ele>
        <time>2023-04-10T09:53:04Z</time>
      </trkpt>
      <trkpt lat="47.79855" lon="6.54286">
        <ele>468.4</ele>
        <time>2023-04-10T09:53:10Z</time>
      </trkpt>
      <trkpt lat="47.79844" lon="6.5429">
        <ele>468.1</ele>
        <time>2023-04-10T09:53:17Z</time>
      </trkpt>
      <trkpt lat="47.79834" lon="6.54291">
        <ele>467.8</ele>
        <time>2023-04-10T09:53:25Z</time>
      </trkpt>
      <trkpt lat="47.79825" lon="6.54288">
        <ele>467.6</ele>
        <time>2023-04-10T09:53:32Z</time>
      </trkpt>
      <trkpt lat="47.79816" lon="6.54284">
        <ele>467.3</ele>
        <time>2023-04-10T09:53:39Z</time>
      </trkpt>
      <trkpt lat="47.79807" lon="6.5428">
        <ele>467.1</ele>
        <time>2023-04-10T09:53:46Z</time>
      </trkpt>
      <trkpt lat="47.79797" lon="6.54276">
        <ele>466.9</ele>
        <time>2023-04-10T09:53:53Z</time>
      </trkpt>
      <trkpt lat="47.79787" lon="6.54275">
        <ele>466.7</ele>
        <time>2023-04-10T09:53:59Z</time>
      </trkpt>
      <trkpt lat="47.79777" lon="6.54274">
        <ele>466.6</ele>
        <time>2023-04-10T09:54:05Z</time>
      </trkpt>
      <trkpt lat="47.79769" lon="6.54282">
        <ele>468</ele>
        <time>2023-04-10T09:54:12Z</time>
      </trkpt>
      <trkpt lat="47.79762" lon="6.54292">
        <ele>469.2</ele>
        <time>2023-04-10T09:54:19Z</time>
      </trkpt>
      <trkpt lat="47.79755" lon="6.54304">
        <ele>470.5</ele>
        <time>2023-04-10T09:54:26Z</time>
      </trkpt>
      <trkpt lat="47.79747" lon="6.54313">
        <ele>471.4</ele>
        <time>2023-04-10T09:54:33Z</time>
      </trkpt>
      <trkpt lat="47.7974" lon="6.54321">
        <ele>471.9</ele>
        <time>2023-04-10T09:54:39Z</time>
      </trkpt>
      <trkpt lat="47.79733" lon="6.54333">
        <ele>472.2</ele>
        <time>2023-04-10T09:54:45Z</time>
      </trkpt>
      <trkpt lat="47.79731" lon="6.54347">
        <ele>472.4</ele>
        <time>2023-04-10T09:54:52Z</time>
      </trkpt>
      <trkpt lat="47.79725" lon="6.54368">
        <ele>472.7</ele>
        <time>2023-04-10T09:54:59Z</time>
      </trkpt>
      <trkpt lat="47.79721" lon="6.54376">
        <ele>472.9</ele>
        <time>2023-04-10T09:55:05Z</time>
      </trkpt>
      <trkpt lat="47.79716" lon="6.54383">
        <ele>473.1</ele>
        <time>2023-04-10T09:55:11Z</time>
      </trkpt>
      <trkpt lat="47.79712" lon="6.5439">
        <ele>473.4</ele>
        <time>2023-04-10T09:55:18Z</time>
      </trkpt>
      <trkpt lat="47.79708" lon="6.54397">
        <ele>473.7</ele>
        <time>2023-04-10T09:55:25Z</time>
      </trkpt>
      <trkpt lat="47.79704" lon="6.54404">
        <ele>474.1</ele>
        <time>2023-04-10T09:55:33Z</time>
      </trkpt>
      <trkpt lat="47.797" lon="6.54412">
        <ele>474.5</ele>
        <time>2023-04-10T09:55:40Z</time>
      </trkpt>
      <trkpt lat="47.79696" lon="6.54419">
        <ele>474.9</ele>
        <time>2023-04-10T09:55:48Z</time>
      </trkpt>
      <trkpt lat="47.79692" lon="6.54426">
        <ele>475.2</ele>
        <time>2023-04-10T09:55:51Z</time>
      </trkpt>
      <trkpt lat="47.79688" lon="6.54433">
        <ele>475.6</ele>
        <time>2023-04-10T09:55:51Z</time>
      </trkpt>
    </trkseg>
  </trk>
</gpx>